<?xml version="1.0" encoding="UTF-8" standalone="no" ?>
<gpx xmlns="http://www.topografix.com/GPX/1/1" xmlns:xsi="http://www.w3.org/2001/XMLSchema-instance" xsi:schemaLocation="http://www.topografix.com/GPX/1/1 http://www.topografix.com/GPX/1/1/gpx.xsd" version="1.1" creator="VisuGPX - https://www.visugpx.com">
  <metadata>
    <name>91RD06/22 Cités de Yerres par Jean Luc IBP 14</name>
    <desc><![CDATA[[img]https://1.bp.blogspot.com/-sLyghmwJxsw/XX5Yo_hbmeI/AAAAAAABnyI/QZg-RxlCf6s3dFnT9w-YORgDcuU3Wb-UACNcBGAsYHQ/s1600/logo-dtour3-ConvertImage.ico[/img]   [b]Rando Club Yerrois[/b]


[img]https://1.bp.blogspot.com/-sLyghmwJxsw/XX5Yo_hbmeI/AAAAAAABnyI/QZg-RxlCf6s3dFnT9w-YORgDcuU3Wb-UACNcBGAsYHQ/s1600/logo-dtour3-ConvertImage.icoo[/img]   [b]Rando Club Yerrois[/b]

[b]Date[/b] :  Jeudi 27 octobre 2022
[b]Animateurs[/b] : Jean Luc
[b]Groupe[/b] : Rando douce
[b]Effectif[/b] :12


[b]Remarque particulière[/b] : Rando douce dans le quartier à la découverte des cités. Attention des pass sont nécessaires pour rentrer dans ces lieux

[b]Avertissement[/b] Toutes les randonnées répertoriées dans la randothèque du [b]R[/b]ando [b]C[/b]lub [b]Y[/b]errois ont été tracées par l'un de nos animateurs, puis reconnues et enfin effectuées avec un groupe. Pour votre sécurité, regardez toujours la date à laquelle la sortie a été effectuée - Nous tachons de mentionner des conditions météos particulières ou les difficultés éventuelles. N'oubliez jamais les consignes supplémentaires de sécurité.

]]></desc>
  </metadata>
  <trk>
    <name><![CDATA[SityTrail - Yerres.Immo.27102022]]></name>
    <trkseg>
      <trkpt lat="48.71472" lon="2.47969">
        <ele>37</ele>
        <time>2022-10-27T07:18:36.305Z</time>
      </trkpt>
      <trkpt lat="48.71469" lon="2.47965">
        <ele>37</ele>
        <time>2022-10-27T07:18:37.568Z</time>
      </trkpt>
      <trkpt lat="48.71466" lon="2.47972">
        <ele>37</ele>
        <time>2022-10-27T07:18:41.558Z</time>
      </trkpt>
      <trkpt lat="48.71464" lon="2.47975">
        <ele>37</ele>
        <time>2022-10-27T07:18:45.552Z</time>
      </trkpt>
      <trkpt lat="48.7146" lon="2.47977">
        <ele>37</ele>
        <time>2022-10-27T07:18:50.556Z</time>
      </trkpt>
      <trkpt lat="48.71456" lon="2.47981">
        <ele>38</ele>
        <time>2022-10-27T07:18:55.548Z</time>
      </trkpt>
      <trkpt lat="48.71451" lon="2.47983">
        <ele>38</ele>
        <time>2022-10-27T07:19:00.566Z</time>
      </trkpt>
      <trkpt lat="48.71446" lon="2.47985">
        <ele>38</ele>
        <time>2022-10-27T07:19:05.550Z</time>
      </trkpt>
      <trkpt lat="48.71441" lon="2.47987">
        <ele>39</ele>
        <time>2022-10-27T07:19:09.550Z</time>
      </trkpt>
      <trkpt lat="48.71437" lon="2.47988">
        <ele>39</ele>
        <time>2022-10-27T07:19:14.581Z</time>
      </trkpt>
      <trkpt lat="48.71432" lon="2.47988">
        <ele>39</ele>
        <time>2022-10-27T07:19:19.575Z</time>
      </trkpt>
      <trkpt lat="48.71428" lon="2.47989">
        <ele>39</ele>
        <time>2022-10-27T07:19:24.572Z</time>
      </trkpt>
      <trkpt lat="48.71426" lon="2.47988">
        <ele>39</ele>
        <time>2022-10-27T07:19:29.566Z</time>
      </trkpt>
      <trkpt lat="48.71421" lon="2.47991">
        <ele>39</ele>
        <time>2022-10-27T07:19:34.572Z</time>
      </trkpt>
      <trkpt lat="48.71417" lon="2.4799">
        <ele>39</ele>
        <time>2022-10-27T07:19:39.556Z</time>
      </trkpt>
      <trkpt lat="48.71413" lon="2.47992">
        <ele>39</ele>
        <time>2022-10-27T07:19:44.556Z</time>
      </trkpt>
      <trkpt lat="48.71409" lon="2.47993">
        <ele>39</ele>
        <time>2022-10-27T07:19:48.559Z</time>
      </trkpt>
      <trkpt lat="48.71406" lon="2.47997">
        <ele>39</ele>
        <time>2022-10-27T07:19:53.548Z</time>
      </trkpt>
      <trkpt lat="48.71403" lon="2.47998">
        <ele>38</ele>
        <time>2022-10-27T07:19:57.568Z</time>
      </trkpt>
      <trkpt lat="48.71399" lon="2.47999">
        <ele>38</ele>
        <time>2022-10-27T07:20:02.556Z</time>
      </trkpt>
      <trkpt lat="48.71397" lon="2.47999">
        <ele>38</ele>
        <time>2022-10-27T07:20:07.567Z</time>
      </trkpt>
      <trkpt lat="48.71393" lon="2.48">
        <ele>38</ele>
        <time>2022-10-27T07:20:12.558Z</time>
      </trkpt>
      <trkpt lat="48.71389" lon="2.48006">
        <ele>38</ele>
        <time>2022-10-27T07:20:17.563Z</time>
      </trkpt>
      <trkpt lat="48.71388" lon="2.48019">
        <ele>38</ele>
        <time>2022-10-27T07:20:22.567Z</time>
      </trkpt>
      <trkpt lat="48.71392" lon="2.48022">
        <ele>38</ele>
        <time>2022-10-27T07:20:27.556Z</time>
      </trkpt>
      <trkpt lat="48.71394" lon="2.4802">
        <ele>38</ele>
        <time>2022-10-27T07:20:32.557Z</time>
      </trkpt>
      <trkpt lat="48.71395" lon="2.48022">
        <ele>38</ele>
        <time>2022-10-27T07:20:37.569Z</time>
      </trkpt>
      <trkpt lat="48.71394" lon="2.48031">
        <ele>38</ele>
        <time>2022-10-27T07:20:42.561Z</time>
      </trkpt>
      <trkpt lat="48.71395" lon="2.48042">
        <ele>37</ele>
        <time>2022-10-27T07:20:47.561Z</time>
      </trkpt>
      <trkpt lat="48.71396" lon="2.48049">
        <ele>37</ele>
        <time>2022-10-27T07:20:52.564Z</time>
      </trkpt>
      <trkpt lat="48.71395" lon="2.48059">
        <ele>37</ele>
        <time>2022-10-27T07:20:57.562Z</time>
      </trkpt>
      <trkpt lat="48.71395" lon="2.48065">
        <ele>37</ele>
        <time>2022-10-27T07:21:02.561Z</time>
      </trkpt>
      <trkpt lat="48.71396" lon="2.48073">
        <ele>37</ele>
        <time>2022-10-27T07:21:07.565Z</time>
      </trkpt>
      <trkpt lat="48.71398" lon="2.4808">
        <ele>37</ele>
        <time>2022-10-27T07:21:12.571Z</time>
      </trkpt>
      <trkpt lat="48.71401" lon="2.48083">
        <ele>37</ele>
        <time>2022-10-27T07:21:17.559Z</time>
      </trkpt>
      <trkpt lat="48.71399" lon="2.48088">
        <ele>37</ele>
        <time>2022-10-27T07:21:22.555Z</time>
      </trkpt>
      <trkpt lat="48.714" lon="2.48095">
        <ele>37</ele>
        <time>2022-10-27T07:21:27.566Z</time>
      </trkpt>
      <trkpt lat="48.71401" lon="2.48099">
        <ele>36</ele>
        <time>2022-10-27T07:21:32.562Z</time>
      </trkpt>
      <trkpt lat="48.71401" lon="2.48105">
        <ele>36</ele>
        <time>2022-10-27T07:21:36.572Z</time>
      </trkpt>
      <trkpt lat="48.71401" lon="2.48112">
        <ele>36</ele>
        <time>2022-10-27T07:21:41.554Z</time>
      </trkpt>
      <trkpt lat="48.71403" lon="2.48118">
        <ele>38</ele>
        <time>2022-10-27T07:21:46.556Z</time>
      </trkpt>
      <trkpt lat="48.71404" lon="2.48126">
        <ele>38</ele>
        <time>2022-10-27T07:21:51.561Z</time>
      </trkpt>
      <trkpt lat="48.71405" lon="2.4813">
        <ele>38</ele>
        <time>2022-10-27T07:21:56.559Z</time>
      </trkpt>
      <trkpt lat="48.71405" lon="2.48138">
        <ele>38</ele>
        <time>2022-10-27T07:22:01.558Z</time>
      </trkpt>
      <trkpt lat="48.71405" lon="2.48145">
        <ele>38</ele>
        <time>2022-10-27T07:22:06.552Z</time>
      </trkpt>
      <trkpt lat="48.71406" lon="2.48154">
        <ele>37</ele>
        <time>2022-10-27T07:22:11.575Z</time>
      </trkpt>
      <trkpt lat="48.71406" lon="2.48161">
        <ele>37</ele>
        <time>2022-10-27T07:22:15.561Z</time>
      </trkpt>
      <trkpt lat="48.71408" lon="2.48167">
        <ele>37</ele>
        <time>2022-10-27T07:22:20.561Z</time>
      </trkpt>
      <trkpt lat="48.71408" lon="2.48174">
        <ele>37</ele>
        <time>2022-10-27T07:22:25.568Z</time>
      </trkpt>
      <trkpt lat="48.71413" lon="2.48179">
        <ele>37</ele>
        <time>2022-10-27T07:22:30.574Z</time>
      </trkpt>
      <trkpt lat="48.71417" lon="2.48182">
        <ele>37</ele>
        <time>2022-10-27T07:22:35.567Z</time>
      </trkpt>
      <trkpt lat="48.71422" lon="2.48183">
        <ele>37</ele>
        <time>2022-10-27T07:22:40.561Z</time>
      </trkpt>
      <trkpt lat="48.71426" lon="2.48179">
        <ele>37</ele>
        <time>2022-10-27T07:22:44.562Z</time>
      </trkpt>
      <trkpt lat="48.71429" lon="2.48175">
        <ele>37</ele>
        <time>2022-10-27T07:22:49.563Z</time>
      </trkpt>
      <trkpt lat="48.7143" lon="2.48172">
        <ele>37</ele>
        <time>2022-10-27T07:22:54.565Z</time>
      </trkpt>
      <trkpt lat="48.7143" lon="2.48165">
        <ele>37</ele>
        <time>2022-10-27T07:22:59.566Z</time>
      </trkpt>
      <trkpt lat="48.71427" lon="2.48159">
        <ele>37</ele>
        <time>2022-10-27T07:23:04.553Z</time>
      </trkpt>
      <trkpt lat="48.71427" lon="2.48152">
        <ele>38</ele>
        <time>2022-10-27T07:23:09.562Z</time>
      </trkpt>
      <trkpt lat="48.71427" lon="2.48143">
        <ele>38</ele>
        <time>2022-10-27T07:23:14.554Z</time>
      </trkpt>
      <trkpt lat="48.71427" lon="2.48135">
        <ele>38</ele>
        <time>2022-10-27T07:23:19.560Z</time>
      </trkpt>
      <trkpt lat="48.71426" lon="2.48131">
        <ele>38</ele>
        <time>2022-10-27T07:23:24.555Z</time>
      </trkpt>
      <trkpt lat="48.71424" lon="2.48126">
        <ele>38</ele>
        <time>2022-10-27T07:23:28.572Z</time>
      </trkpt>
      <trkpt lat="48.71423" lon="2.4812">
        <ele>38</ele>
        <time>2022-10-27T07:23:33.545Z</time>
      </trkpt>
      <trkpt lat="48.71424" lon="2.48115">
        <ele>38</ele>
        <time>2022-10-27T07:23:37.559Z</time>
      </trkpt>
      <trkpt lat="48.7142" lon="2.48108">
        <ele>38</ele>
        <time>2022-10-27T07:23:42.568Z</time>
      </trkpt>
      <trkpt lat="48.71421" lon="2.48103">
        <ele>38</ele>
        <time>2022-10-27T07:23:47.555Z</time>
      </trkpt>
      <trkpt lat="48.71421" lon="2.48096">
        <ele>39</ele>
        <time>2022-10-27T07:23:52.555Z</time>
      </trkpt>
      <trkpt lat="48.71422" lon="2.48092">
        <ele>39</ele>
        <time>2022-10-27T07:23:56.567Z</time>
      </trkpt>
      <trkpt lat="48.71426" lon="2.48087">
        <ele>39</ele>
        <time>2022-10-27T07:24:01.560Z</time>
      </trkpt>
      <trkpt lat="48.7143" lon="2.48087">
        <ele>39</ele>
        <time>2022-10-27T07:24:06.564Z</time>
      </trkpt>
      <trkpt lat="48.71434" lon="2.48086">
        <ele>40</ele>
        <time>2022-10-27T07:24:11.560Z</time>
      </trkpt>
      <trkpt lat="48.71438" lon="2.48084">
        <ele>40</ele>
        <time>2022-10-27T07:24:15.568Z</time>
      </trkpt>
      <trkpt lat="48.71443" lon="2.48081">
        <ele>40</ele>
        <time>2022-10-27T07:24:20.561Z</time>
      </trkpt>
      <trkpt lat="48.71453" lon="2.48085">
        <ele>40</ele>
        <time>2022-10-27T07:24:54.541Z</time>
      </trkpt>
      <trkpt lat="48.71455" lon="2.48089">
        <ele>40</ele>
        <time>2022-10-27T07:24:58.563Z</time>
      </trkpt>
      <trkpt lat="48.71458" lon="2.48093">
        <ele>40</ele>
        <time>2022-10-27T07:25:03.556Z</time>
      </trkpt>
      <trkpt lat="48.71459" lon="2.48094">
        <ele>39</ele>
        <time>2022-10-27T07:25:08.567Z</time>
      </trkpt>
      <trkpt lat="48.7146" lon="2.481">
        <ele>39</ele>
        <time>2022-10-27T07:25:13.552Z</time>
      </trkpt>
      <trkpt lat="48.71462" lon="2.48105">
        <ele>39</ele>
        <time>2022-10-27T07:25:17.561Z</time>
      </trkpt>
      <trkpt lat="48.71465" lon="2.48107">
        <ele>39</ele>
        <time>2022-10-27T07:25:22.560Z</time>
      </trkpt>
      <trkpt lat="48.71467" lon="2.48104">
        <ele>39</ele>
        <time>2022-10-27T07:25:27.555Z</time>
      </trkpt>
      <trkpt lat="48.7147" lon="2.48103">
        <ele>39</ele>
        <time>2022-10-27T07:25:32.563Z</time>
      </trkpt>
      <trkpt lat="48.71473" lon="2.481">
        <ele>39</ele>
        <time>2022-10-27T07:25:37.562Z</time>
      </trkpt>
      <trkpt lat="48.7148" lon="2.48097">
        <ele>39</ele>
        <time>2022-10-27T07:25:52.557Z</time>
      </trkpt>
      <trkpt lat="48.71481" lon="2.481">
        <ele>39</ele>
        <time>2022-10-27T07:25:57.563Z</time>
      </trkpt>
      <trkpt lat="48.71481" lon="2.48103">
        <ele>39</ele>
        <time>2022-10-27T07:26:02.550Z</time>
      </trkpt>
      <trkpt lat="48.71481" lon="2.48106">
        <ele>39</ele>
        <time>2022-10-27T07:26:07.553Z</time>
      </trkpt>
      <trkpt lat="48.71482" lon="2.48109">
        <ele>39</ele>
        <time>2022-10-27T07:26:12.563Z</time>
      </trkpt>
      <trkpt lat="48.71483" lon="2.48116">
        <ele>39</ele>
        <time>2022-10-27T07:26:17.566Z</time>
      </trkpt>
      <trkpt lat="48.71484" lon="2.48121">
        <ele>39</ele>
        <time>2022-10-27T07:26:22.567Z</time>
      </trkpt>
      <trkpt lat="48.71482" lon="2.48125">
        <ele>39</ele>
        <time>2022-10-27T07:26:27.551Z</time>
      </trkpt>
      <trkpt lat="48.71483" lon="2.48127">
        <ele>39</ele>
        <time>2022-10-27T07:26:32.557Z</time>
      </trkpt>
      <trkpt lat="48.71484" lon="2.48132">
        <ele>39</ele>
        <time>2022-10-27T07:26:37.563Z</time>
      </trkpt>
      <trkpt lat="48.71489" lon="2.48136">
        <ele>38</ele>
        <time>2022-10-27T07:26:42.537Z</time>
      </trkpt>
      <trkpt lat="48.71487" lon="2.4814">
        <ele>38</ele>
        <time>2022-10-27T07:26:47.543Z</time>
      </trkpt>
      <trkpt lat="48.71486" lon="2.48147">
        <ele>39</ele>
        <time>2022-10-27T07:26:52.554Z</time>
      </trkpt>
      <trkpt lat="48.71489" lon="2.48153">
        <ele>38</ele>
        <time>2022-10-27T07:26:57.583Z</time>
      </trkpt>
      <trkpt lat="48.71489" lon="2.48157">
        <ele>38</ele>
        <time>2022-10-27T07:27:01.550Z</time>
      </trkpt>
      <trkpt lat="48.71489" lon="2.48163">
        <ele>38</ele>
        <time>2022-10-27T07:27:06.572Z</time>
      </trkpt>
      <trkpt lat="48.71489" lon="2.48168">
        <ele>38</ele>
        <time>2022-10-27T07:27:10.567Z</time>
      </trkpt>
      <trkpt lat="48.71488" lon="2.48173">
        <ele>38</ele>
        <time>2022-10-27T07:27:15.563Z</time>
      </trkpt>
      <trkpt lat="48.71488" lon="2.4818">
        <ele>38</ele>
        <time>2022-10-27T07:27:20.563Z</time>
      </trkpt>
      <trkpt lat="48.71488" lon="2.48187">
        <ele>38</ele>
        <time>2022-10-27T07:27:25.561Z</time>
      </trkpt>
      <trkpt lat="48.7149" lon="2.48192">
        <ele>38</ele>
        <time>2022-10-27T07:27:30.559Z</time>
      </trkpt>
      <trkpt lat="48.71491" lon="2.48198">
        <ele>38</ele>
        <time>2022-10-27T07:27:35.558Z</time>
      </trkpt>
      <trkpt lat="48.7149" lon="2.48201">
        <ele>38</ele>
        <time>2022-10-27T07:27:40.557Z</time>
      </trkpt>
      <trkpt lat="48.71492" lon="2.48207">
        <ele>38</ele>
        <time>2022-10-27T07:27:45.567Z</time>
      </trkpt>
      <trkpt lat="48.71492" lon="2.48213">
        <ele>38</ele>
        <time>2022-10-27T07:27:50.562Z</time>
      </trkpt>
      <trkpt lat="48.71494" lon="2.48217">
        <ele>38</ele>
        <time>2022-10-27T07:27:55.569Z</time>
      </trkpt>
      <trkpt lat="48.71495" lon="2.48223">
        <ele>38</ele>
        <time>2022-10-27T07:28:00.568Z</time>
      </trkpt>
      <trkpt lat="48.71497" lon="2.48228">
        <ele>38</ele>
        <time>2022-10-27T07:28:05.569Z</time>
      </trkpt>
      <trkpt lat="48.71497" lon="2.48233">
        <ele>38</ele>
        <time>2022-10-27T07:28:10.558Z</time>
      </trkpt>
      <trkpt lat="48.71498" lon="2.48236">
        <ele>38</ele>
        <time>2022-10-27T07:28:15.564Z</time>
      </trkpt>
      <trkpt lat="48.71498" lon="2.48239">
        <ele>38</ele>
        <time>2022-10-27T07:28:19.563Z</time>
      </trkpt>
      <trkpt lat="48.71499" lon="2.48244">
        <ele>38</ele>
        <time>2022-10-27T07:28:24.564Z</time>
      </trkpt>
      <trkpt lat="48.71499" lon="2.4825">
        <ele>38</ele>
        <time>2022-10-27T07:28:29.553Z</time>
      </trkpt>
      <trkpt lat="48.71499" lon="2.48255">
        <ele>38</ele>
        <time>2022-10-27T07:28:34.558Z</time>
      </trkpt>
      <trkpt lat="48.715" lon="2.48255">
        <ele>38</ele>
        <time>2022-10-27T07:28:53.563Z</time>
      </trkpt>
      <trkpt lat="48.71498" lon="2.4826">
        <ele>38</ele>
        <time>2022-10-27T07:28:58.557Z</time>
      </trkpt>
      <trkpt lat="48.71498" lon="2.48264">
        <ele>38</ele>
        <time>2022-10-27T07:29:03.561Z</time>
      </trkpt>
      <trkpt lat="48.715" lon="2.48266">
        <ele>39</ele>
        <time>2022-10-27T07:29:08.556Z</time>
      </trkpt>
      <trkpt lat="48.71501" lon="2.48271">
        <ele>39</ele>
        <time>2022-10-27T07:29:13.550Z</time>
      </trkpt>
      <trkpt lat="48.71503" lon="2.48276">
        <ele>39</ele>
        <time>2022-10-27T07:29:46.548Z</time>
      </trkpt>
      <trkpt lat="48.71502" lon="2.48276">
        <ele>39</ele>
        <time>2022-10-27T07:30:05.561Z</time>
      </trkpt>
      <trkpt lat="48.71501" lon="2.48277">
        <ele>39</ele>
        <time>2022-10-27T07:30:10.553Z</time>
      </trkpt>
      <trkpt lat="48.71499" lon="2.48278">
        <ele>39</ele>
        <time>2022-10-27T07:30:14.559Z</time>
      </trkpt>
      <trkpt lat="48.71495" lon="2.48279">
        <ele>39</ele>
        <time>2022-10-27T07:30:19.564Z</time>
      </trkpt>
      <trkpt lat="48.71492" lon="2.48281">
        <ele>39</ele>
        <time>2022-10-27T07:30:24.565Z</time>
      </trkpt>
      <trkpt lat="48.71488" lon="2.48284">
        <ele>39</ele>
        <time>2022-10-27T07:30:29.565Z</time>
      </trkpt>
      <trkpt lat="48.71488" lon="2.48286">
        <ele>39</ele>
        <time>2022-10-27T07:30:34.557Z</time>
      </trkpt>
      <trkpt lat="48.71485" lon="2.4829">
        <ele>37</ele>
        <time>2022-10-27T07:30:38.579Z</time>
      </trkpt>
      <trkpt lat="48.71481" lon="2.48291">
        <ele>37</ele>
        <time>2022-10-27T07:30:43.555Z</time>
      </trkpt>
      <trkpt lat="48.71477" lon="2.48291">
        <ele>37</ele>
        <time>2022-10-27T07:30:48.559Z</time>
      </trkpt>
      <trkpt lat="48.71474" lon="2.48292">
        <ele>37</ele>
        <time>2022-10-27T07:30:53.554Z</time>
      </trkpt>
      <trkpt lat="48.7147" lon="2.48294">
        <ele>37</ele>
        <time>2022-10-27T07:30:58.549Z</time>
      </trkpt>
      <trkpt lat="48.71467" lon="2.48292">
        <ele>37</ele>
        <time>2022-10-27T07:31:03.556Z</time>
      </trkpt>
      <trkpt lat="48.71463" lon="2.48294">
        <ele>37</ele>
        <time>2022-10-27T07:31:08.550Z</time>
      </trkpt>
      <trkpt lat="48.71459" lon="2.48295">
        <ele>37</ele>
        <time>2022-10-27T07:31:13.554Z</time>
      </trkpt>
      <trkpt lat="48.71455" lon="2.48294">
        <ele>36</ele>
        <time>2022-10-27T07:31:18.555Z</time>
      </trkpt>
      <trkpt lat="48.71451" lon="2.48292">
        <ele>36</ele>
        <time>2022-10-27T07:31:23.570Z</time>
      </trkpt>
      <trkpt lat="48.71447" lon="2.48292">
        <ele>36</ele>
        <time>2022-10-27T07:31:28.559Z</time>
      </trkpt>
      <trkpt lat="48.71442" lon="2.48289">
        <ele>37</ele>
        <time>2022-10-27T07:31:33.557Z</time>
      </trkpt>
      <trkpt lat="48.7144" lon="2.48287">
        <ele>37</ele>
        <time>2022-10-27T07:31:38.556Z</time>
      </trkpt>
      <trkpt lat="48.71435" lon="2.48286">
        <ele>37</ele>
        <time>2022-10-27T07:31:43.548Z</time>
      </trkpt>
      <trkpt lat="48.71429" lon="2.48287">
        <ele>37</ele>
        <time>2022-10-27T07:31:48.553Z</time>
      </trkpt>
      <trkpt lat="48.71428" lon="2.48288">
        <ele>37</ele>
        <time>2022-10-27T07:31:53.557Z</time>
      </trkpt>
      <trkpt lat="48.71423" lon="2.48288">
        <ele>37</ele>
        <time>2022-10-27T07:31:58.555Z</time>
      </trkpt>
      <trkpt lat="48.71421" lon="2.48282">
        <ele>37</ele>
        <time>2022-10-27T07:32:03.548Z</time>
      </trkpt>
      <trkpt lat="48.7142" lon="2.48279">
        <ele>37</ele>
        <time>2022-10-27T07:32:08.554Z</time>
      </trkpt>
      <trkpt lat="48.7142" lon="2.48278">
        <ele>37</ele>
        <time>2022-10-27T07:32:13.550Z</time>
      </trkpt>
      <trkpt lat="48.7142" lon="2.48274">
        <ele>37</ele>
        <time>2022-10-27T07:32:18.555Z</time>
      </trkpt>
      <trkpt lat="48.71418" lon="2.48268">
        <ele>37</ele>
        <time>2022-10-27T07:32:23.548Z</time>
      </trkpt>
      <trkpt lat="48.71414" lon="2.48247">
        <ele>37</ele>
        <time>2022-10-27T07:32:42.562Z</time>
      </trkpt>
      <trkpt lat="48.71416" lon="2.48243">
        <ele>37</ele>
        <time>2022-10-27T07:32:47.548Z</time>
      </trkpt>
      <trkpt lat="48.71416" lon="2.48238">
        <ele>37</ele>
        <time>2022-10-27T07:32:51.555Z</time>
      </trkpt>
      <trkpt lat="48.71416" lon="2.48234">
        <ele>37</ele>
        <time>2022-10-27T07:32:56.547Z</time>
      </trkpt>
      <trkpt lat="48.71416" lon="2.48228">
        <ele>37</ele>
        <time>2022-10-27T07:33:01.546Z</time>
      </trkpt>
      <trkpt lat="48.71416" lon="2.48225">
        <ele>37</ele>
        <time>2022-10-27T07:33:05.555Z</time>
      </trkpt>
      <trkpt lat="48.71416" lon="2.4822">
        <ele>37</ele>
        <time>2022-10-27T07:33:10.553Z</time>
      </trkpt>
      <trkpt lat="48.71415" lon="2.48215">
        <ele>37</ele>
        <time>2022-10-27T07:33:15.556Z</time>
      </trkpt>
      <trkpt lat="48.71415" lon="2.48208">
        <ele>37</ele>
        <time>2022-10-27T07:33:19.552Z</time>
      </trkpt>
      <trkpt lat="48.71415" lon="2.48204">
        <ele>37</ele>
        <time>2022-10-27T07:33:24.558Z</time>
      </trkpt>
      <trkpt lat="48.71411" lon="2.48199">
        <ele>37</ele>
        <time>2022-10-27T07:33:29.550Z</time>
      </trkpt>
      <trkpt lat="48.71411" lon="2.48192">
        <ele>37</ele>
        <time>2022-10-27T07:33:34.547Z</time>
      </trkpt>
      <trkpt lat="48.71408" lon="2.48186">
        <ele>37</ele>
        <time>2022-10-27T07:33:39.552Z</time>
      </trkpt>
      <trkpt lat="48.71406" lon="2.4818">
        <ele>37</ele>
        <time>2022-10-27T07:33:44.551Z</time>
      </trkpt>
      <trkpt lat="48.71404" lon="2.48174">
        <ele>37</ele>
        <time>2022-10-27T07:33:49.555Z</time>
      </trkpt>
      <trkpt lat="48.71404" lon="2.48166">
        <ele>37</ele>
        <time>2022-10-27T07:33:54.561Z</time>
      </trkpt>
      <trkpt lat="48.71405" lon="2.48159">
        <ele>37</ele>
        <time>2022-10-27T07:33:59.551Z</time>
      </trkpt>
      <trkpt lat="48.71403" lon="2.48153">
        <ele>37</ele>
        <time>2022-10-27T07:34:04.557Z</time>
      </trkpt>
      <trkpt lat="48.71402" lon="2.48154">
        <ele>35</ele>
        <time>2022-10-27T07:34:09.551Z</time>
      </trkpt>
      <trkpt lat="48.71397" lon="2.48155">
        <ele>35</ele>
        <time>2022-10-27T07:34:14.550Z</time>
      </trkpt>
      <trkpt lat="48.71394" lon="2.48155">
        <ele>35</ele>
        <time>2022-10-27T07:34:18.558Z</time>
      </trkpt>
      <trkpt lat="48.71389" lon="2.48158">
        <ele>35</ele>
        <time>2022-10-27T07:34:23.547Z</time>
      </trkpt>
      <trkpt lat="48.71385" lon="2.48161">
        <ele>35</ele>
        <time>2022-10-27T07:34:27.559Z</time>
      </trkpt>
      <trkpt lat="48.71379" lon="2.48163">
        <ele>35</ele>
        <time>2022-10-27T07:34:32.552Z</time>
      </trkpt>
      <trkpt lat="48.71376" lon="2.48167">
        <ele>35</ele>
        <time>2022-10-27T07:34:36.555Z</time>
      </trkpt>
      <trkpt lat="48.71371" lon="2.48168">
        <ele>35</ele>
        <time>2022-10-27T07:34:41.556Z</time>
      </trkpt>
      <trkpt lat="48.71366" lon="2.4817">
        <ele>35</ele>
        <time>2022-10-27T07:34:46.556Z</time>
      </trkpt>
      <trkpt lat="48.71363" lon="2.48173">
        <ele>35</ele>
        <time>2022-10-27T07:34:51.554Z</time>
      </trkpt>
      <trkpt lat="48.7136" lon="2.48176">
        <ele>35</ele>
        <time>2022-10-27T07:34:55.567Z</time>
      </trkpt>
      <trkpt lat="48.71358" lon="2.48181">
        <ele>35</ele>
        <time>2022-10-27T07:35:00.558Z</time>
      </trkpt>
      <trkpt lat="48.71358" lon="2.48181">
        <ele>35</ele>
        <time>2022-10-27T07:35:04.566Z</time>
      </trkpt>
      <trkpt lat="48.71358" lon="2.48181">
        <ele>35</ele>
        <time>2022-10-27T07:35:09.557Z</time>
      </trkpt>
      <trkpt lat="48.71353" lon="2.48181">
        <ele>35</ele>
        <time>2022-10-27T07:35:14.558Z</time>
      </trkpt>
      <trkpt lat="48.71349" lon="2.48183">
        <ele>35</ele>
        <time>2022-10-27T07:35:19.555Z</time>
      </trkpt>
      <trkpt lat="48.71345" lon="2.48186">
        <ele>36</ele>
        <time>2022-10-27T07:35:24.552Z</time>
      </trkpt>
      <trkpt lat="48.71341" lon="2.48187">
        <ele>36</ele>
        <time>2022-10-27T07:35:29.553Z</time>
      </trkpt>
      <trkpt lat="48.71337" lon="2.48187">
        <ele>36</ele>
        <time>2022-10-27T07:35:34.564Z</time>
      </trkpt>
      <trkpt lat="48.71332" lon="2.48188">
        <ele>36</ele>
        <time>2022-10-27T07:35:39.555Z</time>
      </trkpt>
      <trkpt lat="48.71327" lon="2.48188">
        <ele>36</ele>
        <time>2022-10-27T07:35:44.564Z</time>
      </trkpt>
      <trkpt lat="48.71325" lon="2.48188">
        <ele>36</ele>
        <time>2022-10-27T07:35:49.564Z</time>
      </trkpt>
      <trkpt lat="48.7132" lon="2.4819">
        <ele>36</ele>
        <time>2022-10-27T07:35:54.567Z</time>
      </trkpt>
      <trkpt lat="48.71315" lon="2.48191">
        <ele>37</ele>
        <time>2022-10-27T07:35:59.553Z</time>
      </trkpt>
      <trkpt lat="48.7131" lon="2.48192">
        <ele>37</ele>
        <time>2022-10-27T07:36:04.558Z</time>
      </trkpt>
      <trkpt lat="48.71306" lon="2.48195">
        <ele>37</ele>
        <time>2022-10-27T07:36:09.560Z</time>
      </trkpt>
      <trkpt lat="48.71304" lon="2.48195">
        <ele>37</ele>
        <time>2022-10-27T07:36:13.556Z</time>
      </trkpt>
      <trkpt lat="48.71303" lon="2.48189">
        <ele>37</ele>
        <time>2022-10-27T07:36:18.556Z</time>
      </trkpt>
      <trkpt lat="48.71301" lon="2.48185">
        <ele>37</ele>
        <time>2022-10-27T07:36:22.559Z</time>
      </trkpt>
      <trkpt lat="48.71297" lon="2.48183">
        <ele>37</ele>
        <time>2022-10-27T07:36:27.556Z</time>
      </trkpt>
      <trkpt lat="48.71292" lon="2.48184">
        <ele>37</ele>
        <time>2022-10-27T07:36:32.556Z</time>
      </trkpt>
      <trkpt lat="48.71289" lon="2.48185">
        <ele>38</ele>
        <time>2022-10-27T07:36:36.558Z</time>
      </trkpt>
      <trkpt lat="48.71285" lon="2.48187">
        <ele>38</ele>
        <time>2022-10-27T07:36:41.563Z</time>
      </trkpt>
      <trkpt lat="48.71281" lon="2.48189">
        <ele>38</ele>
        <time>2022-10-27T07:36:46.556Z</time>
      </trkpt>
      <trkpt lat="48.71278" lon="2.48191">
        <ele>38</ele>
        <time>2022-10-27T07:36:50.559Z</time>
      </trkpt>
      <trkpt lat="48.71275" lon="2.48194">
        <ele>38</ele>
        <time>2022-10-27T07:36:55.554Z</time>
      </trkpt>
      <trkpt lat="48.71272" lon="2.48197">
        <ele>38</ele>
        <time>2022-10-27T07:37:00.553Z</time>
      </trkpt>
      <trkpt lat="48.71268" lon="2.48213">
        <ele>37</ele>
        <time>2022-10-27T07:37:45.554Z</time>
      </trkpt>
      <trkpt lat="48.71269" lon="2.48217">
        <ele>37</ele>
        <time>2022-10-27T07:37:49.552Z</time>
      </trkpt>
      <trkpt lat="48.71271" lon="2.48225">
        <ele>37</ele>
        <time>2022-10-27T07:37:54.564Z</time>
      </trkpt>
      <trkpt lat="48.71272" lon="2.48229">
        <ele>37</ele>
        <time>2022-10-27T07:37:59.566Z</time>
      </trkpt>
      <trkpt lat="48.71272" lon="2.48233">
        <ele>37</ele>
        <time>2022-10-27T07:38:03.559Z</time>
      </trkpt>
      <trkpt lat="48.71273" lon="2.48239">
        <ele>37</ele>
        <time>2022-10-27T07:38:08.548Z</time>
      </trkpt>
      <trkpt lat="48.71272" lon="2.48244">
        <ele>37</ele>
        <time>2022-10-27T07:38:13.561Z</time>
      </trkpt>
      <trkpt lat="48.7127" lon="2.48247">
        <ele>37</ele>
        <time>2022-10-27T07:38:18.557Z</time>
      </trkpt>
      <trkpt lat="48.71267" lon="2.48249">
        <ele>37</ele>
        <time>2022-10-27T07:38:23.562Z</time>
      </trkpt>
      <trkpt lat="48.71268" lon="2.48251">
        <ele>37</ele>
        <time>2022-10-27T07:38:28.548Z</time>
      </trkpt>
      <trkpt lat="48.71267" lon="2.48253">
        <ele>37</ele>
        <time>2022-10-27T07:38:38.552Z</time>
      </trkpt>
      <trkpt lat="48.71267" lon="2.48256">
        <ele>37</ele>
        <time>2022-10-27T07:38:43.552Z</time>
      </trkpt>
      <trkpt lat="48.71265" lon="2.48257">
        <ele>37</ele>
        <time>2022-10-27T07:38:48.544Z</time>
      </trkpt>
      <trkpt lat="48.71264" lon="2.48258">
        <ele>37</ele>
        <time>2022-10-27T07:38:53.552Z</time>
      </trkpt>
      <trkpt lat="48.71261" lon="2.48261">
        <ele>39</ele>
        <time>2022-10-27T07:38:58.548Z</time>
      </trkpt>
      <trkpt lat="48.71255" lon="2.48263">
        <ele>39</ele>
        <time>2022-10-27T07:39:08.554Z</time>
      </trkpt>
      <trkpt lat="48.71255" lon="2.48265">
        <ele>39</ele>
        <time>2022-10-27T07:39:13.568Z</time>
      </trkpt>
      <trkpt lat="48.71256" lon="2.48268">
        <ele>39</ele>
        <time>2022-10-27T07:39:18.555Z</time>
      </trkpt>
      <trkpt lat="48.71254" lon="2.48271">
        <ele>39</ele>
        <time>2022-10-27T07:39:23.551Z</time>
      </trkpt>
      <trkpt lat="48.71253" lon="2.48277">
        <ele>39</ele>
        <time>2022-10-27T07:39:28.547Z</time>
      </trkpt>
      <trkpt lat="48.71254" lon="2.48278">
        <ele>39</ele>
        <time>2022-10-27T07:39:33.549Z</time>
      </trkpt>
      <trkpt lat="48.71255" lon="2.48282">
        <ele>39</ele>
        <time>2022-10-27T07:39:38.563Z</time>
      </trkpt>
      <trkpt lat="48.71257" lon="2.48289">
        <ele>39</ele>
        <time>2022-10-27T07:39:43.558Z</time>
      </trkpt>
      <trkpt lat="48.71258" lon="2.48296">
        <ele>40</ele>
        <time>2022-10-27T07:39:48.553Z</time>
      </trkpt>
      <trkpt lat="48.71259" lon="2.48299">
        <ele>40</ele>
        <time>2022-10-27T07:39:53.555Z</time>
      </trkpt>
      <trkpt lat="48.71259" lon="2.48304">
        <ele>40</ele>
        <time>2022-10-27T07:39:58.552Z</time>
      </trkpt>
      <trkpt lat="48.71259" lon="2.48308">
        <ele>40</ele>
        <time>2022-10-27T07:40:02.544Z</time>
      </trkpt>
      <trkpt lat="48.71257" lon="2.48315">
        <ele>40</ele>
        <time>2022-10-27T07:40:07.551Z</time>
      </trkpt>
      <trkpt lat="48.71257" lon="2.48317">
        <ele>40</ele>
        <time>2022-10-27T07:40:12.550Z</time>
      </trkpt>
      <trkpt lat="48.71255" lon="2.48318">
        <ele>40</ele>
        <time>2022-10-27T07:40:16.556Z</time>
      </trkpt>
      <trkpt lat="48.71249" lon="2.48321">
        <ele>40</ele>
        <time>2022-10-27T07:40:21.558Z</time>
      </trkpt>
      <trkpt lat="48.71245" lon="2.48325">
        <ele>40</ele>
        <time>2022-10-27T07:40:26.565Z</time>
      </trkpt>
      <trkpt lat="48.71244" lon="2.48331">
        <ele>40</ele>
        <time>2022-10-27T07:40:31.554Z</time>
      </trkpt>
      <trkpt lat="48.71244" lon="2.48335">
        <ele>40</ele>
        <time>2022-10-27T07:40:36.565Z</time>
      </trkpt>
      <trkpt lat="48.7124" lon="2.48341">
        <ele>40</ele>
        <time>2022-10-27T07:40:41.555Z</time>
      </trkpt>
      <trkpt lat="48.7124" lon="2.48346">
        <ele>40</ele>
        <time>2022-10-27T07:40:46.559Z</time>
      </trkpt>
      <trkpt lat="48.71238" lon="2.48352">
        <ele>40</ele>
        <time>2022-10-27T07:40:51.567Z</time>
      </trkpt>
      <trkpt lat="48.71236" lon="2.48357">
        <ele>40</ele>
        <time>2022-10-27T07:40:56.560Z</time>
      </trkpt>
      <trkpt lat="48.71233" lon="2.48363">
        <ele>40</ele>
        <time>2022-10-27T07:41:01.564Z</time>
      </trkpt>
      <trkpt lat="48.71232" lon="2.48367">
        <ele>40</ele>
        <time>2022-10-27T07:41:06.552Z</time>
      </trkpt>
      <trkpt lat="48.71228" lon="2.4837">
        <ele>40</ele>
        <time>2022-10-27T07:41:11.566Z</time>
      </trkpt>
      <trkpt lat="48.71226" lon="2.48374">
        <ele>40</ele>
        <time>2022-10-27T07:41:16.552Z</time>
      </trkpt>
      <trkpt lat="48.71221" lon="2.48378">
        <ele>40</ele>
        <time>2022-10-27T07:41:21.565Z</time>
      </trkpt>
      <trkpt lat="48.71217" lon="2.48381">
        <ele>40</ele>
        <time>2022-10-27T07:41:26.561Z</time>
      </trkpt>
      <trkpt lat="48.71216" lon="2.4839">
        <ele>40</ele>
        <time>2022-10-27T07:41:36.546Z</time>
      </trkpt>
      <trkpt lat="48.71216" lon="2.48392">
        <ele>40</ele>
        <time>2022-10-27T07:41:41.553Z</time>
      </trkpt>
      <trkpt lat="48.71214" lon="2.48394">
        <ele>40</ele>
        <time>2022-10-27T07:41:46.559Z</time>
      </trkpt>
      <trkpt lat="48.71212" lon="2.48398">
        <ele>40</ele>
        <time>2022-10-27T07:41:51.559Z</time>
      </trkpt>
      <trkpt lat="48.71208" lon="2.48404">
        <ele>41</ele>
        <time>2022-10-27T07:41:56.554Z</time>
      </trkpt>
      <trkpt lat="48.71202" lon="2.48407">
        <ele>41</ele>
        <time>2022-10-27T07:42:01.553Z</time>
      </trkpt>
      <trkpt lat="48.71197" lon="2.48412">
        <ele>41</ele>
        <time>2022-10-27T07:42:06.553Z</time>
      </trkpt>
      <trkpt lat="48.71195" lon="2.48416">
        <ele>41</ele>
        <time>2022-10-27T07:42:11.547Z</time>
      </trkpt>
      <trkpt lat="48.71195" lon="2.48421">
        <ele>41</ele>
        <time>2022-10-27T07:42:16.549Z</time>
      </trkpt>
      <trkpt lat="48.71194" lon="2.48425">
        <ele>41</ele>
        <time>2022-10-27T07:42:21.558Z</time>
      </trkpt>
      <trkpt lat="48.71193" lon="2.48431">
        <ele>42</ele>
        <time>2022-10-27T07:42:26.560Z</time>
      </trkpt>
      <trkpt lat="48.7119" lon="2.48435">
        <ele>42</ele>
        <time>2022-10-27T07:42:30.565Z</time>
      </trkpt>
      <trkpt lat="48.71186" lon="2.48438">
        <ele>42</ele>
        <time>2022-10-27T07:42:35.567Z</time>
      </trkpt>
      <trkpt lat="48.71184" lon="2.48436">
        <ele>42</ele>
        <time>2022-10-27T07:42:45.561Z</time>
      </trkpt>
      <trkpt lat="48.71182" lon="2.48439">
        <ele>42</ele>
        <time>2022-10-27T07:42:50.567Z</time>
      </trkpt>
      <trkpt lat="48.71179" lon="2.4844">
        <ele>42</ele>
        <time>2022-10-27T07:42:55.548Z</time>
      </trkpt>
      <trkpt lat="48.71175" lon="2.48439">
        <ele>42</ele>
        <time>2022-10-27T07:42:59.561Z</time>
      </trkpt>
      <trkpt lat="48.71173" lon="2.48442">
        <ele>42</ele>
        <time>2022-10-27T07:43:04.554Z</time>
      </trkpt>
      <trkpt lat="48.71162" lon="2.4845">
        <ele>42</ele>
        <time>2022-10-27T07:43:28.556Z</time>
      </trkpt>
      <trkpt lat="48.71158" lon="2.48449">
        <ele>42</ele>
        <time>2022-10-27T07:43:33.567Z</time>
      </trkpt>
      <trkpt lat="48.71155" lon="2.48451">
        <ele>42</ele>
        <time>2022-10-27T07:43:38.563Z</time>
      </trkpt>
      <trkpt lat="48.71152" lon="2.48452">
        <ele>43</ele>
        <time>2022-10-27T07:43:43.564Z</time>
      </trkpt>
      <trkpt lat="48.7115" lon="2.48452">
        <ele>43</ele>
        <time>2022-10-27T07:43:47.579Z</time>
      </trkpt>
      <trkpt lat="48.71148" lon="2.48453">
        <ele>43</ele>
        <time>2022-10-27T07:43:52.573Z</time>
      </trkpt>
      <trkpt lat="48.71144" lon="2.48454">
        <ele>43</ele>
        <time>2022-10-27T07:43:57.566Z</time>
      </trkpt>
      <trkpt lat="48.71141" lon="2.48458">
        <ele>43</ele>
        <time>2022-10-27T07:44:02.571Z</time>
      </trkpt>
      <trkpt lat="48.71141" lon="2.48466">
        <ele>44</ele>
        <time>2022-10-27T07:44:07.575Z</time>
      </trkpt>
      <trkpt lat="48.71144" lon="2.48457">
        <ele>43</ele>
        <time>2022-10-27T07:45:41.571Z</time>
      </trkpt>
      <trkpt lat="48.71144" lon="2.48457">
        <ele>43</ele>
        <time>2022-10-27T07:45:46.558Z</time>
      </trkpt>
      <trkpt lat="48.71144" lon="2.48453">
        <ele>43</ele>
        <time>2022-10-27T07:46:01.550Z</time>
      </trkpt>
      <trkpt lat="48.71144" lon="2.48448">
        <ele>43</ele>
        <time>2022-10-27T07:46:06.559Z</time>
      </trkpt>
      <trkpt lat="48.71145" lon="2.48442">
        <ele>43</ele>
        <time>2022-10-27T07:46:11.564Z</time>
      </trkpt>
      <trkpt lat="48.71145" lon="2.48439">
        <ele>43</ele>
        <time>2022-10-27T07:46:16.562Z</time>
      </trkpt>
      <trkpt lat="48.71146" lon="2.48434">
        <ele>43</ele>
        <time>2022-10-27T07:46:20.562Z</time>
      </trkpt>
      <trkpt lat="48.71146" lon="2.48428">
        <ele>42</ele>
        <time>2022-10-27T07:46:25.566Z</time>
      </trkpt>
      <trkpt lat="48.71148" lon="2.48422">
        <ele>42</ele>
        <time>2022-10-27T07:46:30.573Z</time>
      </trkpt>
      <trkpt lat="48.71148" lon="2.48418">
        <ele>42</ele>
        <time>2022-10-27T07:46:35.569Z</time>
      </trkpt>
      <trkpt lat="48.71148" lon="2.48412">
        <ele>42</ele>
        <time>2022-10-27T07:46:40.569Z</time>
      </trkpt>
      <trkpt lat="48.71149" lon="2.48406">
        <ele>42</ele>
        <time>2022-10-27T07:46:44.570Z</time>
      </trkpt>
      <trkpt lat="48.71148" lon="2.48402">
        <ele>42</ele>
        <time>2022-10-27T07:46:49.564Z</time>
      </trkpt>
      <trkpt lat="48.71148" lon="2.48398">
        <ele>42</ele>
        <time>2022-10-27T07:46:54.569Z</time>
      </trkpt>
      <trkpt lat="48.71148" lon="2.48391">
        <ele>42</ele>
        <time>2022-10-27T07:46:59.549Z</time>
      </trkpt>
      <trkpt lat="48.71148" lon="2.48385">
        <ele>42</ele>
        <time>2022-10-27T07:47:04.551Z</time>
      </trkpt>
      <trkpt lat="48.71149" lon="2.4838">
        <ele>42</ele>
        <time>2022-10-27T07:47:08.568Z</time>
      </trkpt>
      <trkpt lat="48.71149" lon="2.48373">
        <ele>40</ele>
        <time>2022-10-27T07:47:13.563Z</time>
      </trkpt>
      <trkpt lat="48.71147" lon="2.48367">
        <ele>40</ele>
        <time>2022-10-27T07:47:18.562Z</time>
      </trkpt>
      <trkpt lat="48.71147" lon="2.4836">
        <ele>40</ele>
        <time>2022-10-27T07:47:23.566Z</time>
      </trkpt>
      <trkpt lat="48.71145" lon="2.48356">
        <ele>40</ele>
        <time>2022-10-27T07:47:27.567Z</time>
      </trkpt>
      <trkpt lat="48.71143" lon="2.4835">
        <ele>40</ele>
        <time>2022-10-27T07:47:32.579Z</time>
      </trkpt>
      <trkpt lat="48.71142" lon="2.48344">
        <ele>39</ele>
        <time>2022-10-27T07:47:37.569Z</time>
      </trkpt>
      <trkpt lat="48.71142" lon="2.48339">
        <ele>39</ele>
        <time>2022-10-27T07:47:42.575Z</time>
      </trkpt>
      <trkpt lat="48.71143" lon="2.48333">
        <ele>39</ele>
        <time>2022-10-27T07:47:47.564Z</time>
      </trkpt>
      <trkpt lat="48.71142" lon="2.48329">
        <ele>39</ele>
        <time>2022-10-27T07:47:52.577Z</time>
      </trkpt>
      <trkpt lat="48.71144" lon="2.48324">
        <ele>39</ele>
        <time>2022-10-27T07:47:57.571Z</time>
      </trkpt>
      <trkpt lat="48.71144" lon="2.48318">
        <ele>38</ele>
        <time>2022-10-27T07:48:02.565Z</time>
      </trkpt>
      <trkpt lat="48.71143" lon="2.48312">
        <ele>38</ele>
        <time>2022-10-27T07:48:07.550Z</time>
      </trkpt>
      <trkpt lat="48.71142" lon="2.48306">
        <ele>38</ele>
        <time>2022-10-27T07:48:12.561Z</time>
      </trkpt>
      <trkpt lat="48.71143" lon="2.48302">
        <ele>38</ele>
        <time>2022-10-27T07:48:17.554Z</time>
      </trkpt>
      <trkpt lat="48.71142" lon="2.48296">
        <ele>38</ele>
        <time>2022-10-27T07:48:22.558Z</time>
      </trkpt>
      <trkpt lat="48.71142" lon="2.48291">
        <ele>38</ele>
        <time>2022-10-27T07:48:27.565Z</time>
      </trkpt>
      <trkpt lat="48.71142" lon="2.48284">
        <ele>38</ele>
        <time>2022-10-27T07:48:32.553Z</time>
      </trkpt>
      <trkpt lat="48.71139" lon="2.48281">
        <ele>38</ele>
        <time>2022-10-27T07:48:37.549Z</time>
      </trkpt>
      <trkpt lat="48.71138" lon="2.48276">
        <ele>38</ele>
        <time>2022-10-27T07:48:41.556Z</time>
      </trkpt>
      <trkpt lat="48.71136" lon="2.48272">
        <ele>38</ele>
        <time>2022-10-27T07:48:46.570Z</time>
      </trkpt>
      <trkpt lat="48.71135" lon="2.48267">
        <ele>38</ele>
        <time>2022-10-27T07:48:51.568Z</time>
      </trkpt>
      <trkpt lat="48.71134" lon="2.48263">
        <ele>37</ele>
        <time>2022-10-27T07:48:56.564Z</time>
      </trkpt>
      <trkpt lat="48.71133" lon="2.4826">
        <ele>37</ele>
        <time>2022-10-27T07:49:01.571Z</time>
      </trkpt>
      <trkpt lat="48.71134" lon="2.48252">
        <ele>37</ele>
        <time>2022-10-27T07:49:06.557Z</time>
      </trkpt>
      <trkpt lat="48.71133" lon="2.4825">
        <ele>37</ele>
        <time>2022-10-27T07:49:10.540Z</time>
      </trkpt>
      <trkpt lat="48.7113" lon="2.48245">
        <ele>37</ele>
        <time>2022-10-27T07:49:15.594Z</time>
      </trkpt>
      <trkpt lat="48.71129" lon="2.48239">
        <ele>37</ele>
        <time>2022-10-27T07:49:20.547Z</time>
      </trkpt>
      <trkpt lat="48.71129" lon="2.48236">
        <ele>37</ele>
        <time>2022-10-27T07:49:25.572Z</time>
      </trkpt>
      <trkpt lat="48.71126" lon="2.48228">
        <ele>37</ele>
        <time>2022-10-27T07:49:30.564Z</time>
      </trkpt>
      <trkpt lat="48.71125" lon="2.48219">
        <ele>36</ele>
        <time>2022-10-27T07:49:35.559Z</time>
      </trkpt>
      <trkpt lat="48.71124" lon="2.48214">
        <ele>36</ele>
        <time>2022-10-27T07:49:40.555Z</time>
      </trkpt>
      <trkpt lat="48.71123" lon="2.48212">
        <ele>36</ele>
        <time>2022-10-27T07:49:45.556Z</time>
      </trkpt>
      <trkpt lat="48.7112" lon="2.48206">
        <ele>35</ele>
        <time>2022-10-27T07:49:50.562Z</time>
      </trkpt>
      <trkpt lat="48.7112" lon="2.48204">
        <ele>35</ele>
        <time>2022-10-27T07:49:55.558Z</time>
      </trkpt>
      <trkpt lat="48.71117" lon="2.48198">
        <ele>35</ele>
        <time>2022-10-27T07:49:59.550Z</time>
      </trkpt>
      <trkpt lat="48.71116" lon="2.48192">
        <ele>35</ele>
        <time>2022-10-27T07:50:04.577Z</time>
      </trkpt>
      <trkpt lat="48.71115" lon="2.48184">
        <ele>35</ele>
        <time>2022-10-27T07:50:09.559Z</time>
      </trkpt>
      <trkpt lat="48.71116" lon="2.48177">
        <ele>35</ele>
        <time>2022-10-27T07:50:14.567Z</time>
      </trkpt>
      <trkpt lat="48.71114" lon="2.48174">
        <ele>35</ele>
        <time>2022-10-27T07:50:19.563Z</time>
      </trkpt>
      <trkpt lat="48.71114" lon="2.48168">
        <ele>35</ele>
        <time>2022-10-27T07:50:24.570Z</time>
      </trkpt>
      <trkpt lat="48.71113" lon="2.4816">
        <ele>35</ele>
        <time>2022-10-27T07:50:29.546Z</time>
      </trkpt>
      <trkpt lat="48.71111" lon="2.48156">
        <ele>35</ele>
        <time>2022-10-27T07:50:33.583Z</time>
      </trkpt>
      <trkpt lat="48.71113" lon="2.4815">
        <ele>36</ele>
        <time>2022-10-27T07:50:38.558Z</time>
      </trkpt>
      <trkpt lat="48.71111" lon="2.48148">
        <ele>36</ele>
        <time>2022-10-27T07:50:42.567Z</time>
      </trkpt>
      <trkpt lat="48.71109" lon="2.48142">
        <ele>36</ele>
        <time>2022-10-27T07:50:47.560Z</time>
      </trkpt>
      <trkpt lat="48.71111" lon="2.48134">
        <ele>36</ele>
        <time>2022-10-27T07:51:01.565Z</time>
      </trkpt>
      <trkpt lat="48.71109" lon="2.4813">
        <ele>36</ele>
        <time>2022-10-27T07:51:06.576Z</time>
      </trkpt>
      <trkpt lat="48.71109" lon="2.48125">
        <ele>37</ele>
        <time>2022-10-27T07:51:11.558Z</time>
      </trkpt>
      <trkpt lat="48.71109" lon="2.48125">
        <ele>37</ele>
        <time>2022-10-27T07:51:16.545Z</time>
      </trkpt>
      <trkpt lat="48.7111" lon="2.4812">
        <ele>37</ele>
        <time>2022-10-27T07:51:20.563Z</time>
      </trkpt>
      <trkpt lat="48.71106" lon="2.48117">
        <ele>37</ele>
        <time>2022-10-27T07:51:25.577Z</time>
      </trkpt>
      <trkpt lat="48.71105" lon="2.4811">
        <ele>37</ele>
        <time>2022-10-27T07:51:30.563Z</time>
      </trkpt>
      <trkpt lat="48.71103" lon="2.48105">
        <ele>37</ele>
        <time>2022-10-27T07:51:35.559Z</time>
      </trkpt>
      <trkpt lat="48.71102" lon="2.48098">
        <ele>37</ele>
        <time>2022-10-27T07:51:40.554Z</time>
      </trkpt>
      <trkpt lat="48.71102" lon="2.4809">
        <ele>38</ele>
        <time>2022-10-27T07:51:45.551Z</time>
      </trkpt>
      <trkpt lat="48.71101" lon="2.48086">
        <ele>38</ele>
        <time>2022-10-27T07:51:49.561Z</time>
      </trkpt>
      <trkpt lat="48.71099" lon="2.48084">
        <ele>38</ele>
        <time>2022-10-27T07:51:54.553Z</time>
      </trkpt>
      <trkpt lat="48.71098" lon="2.48076">
        <ele>38</ele>
        <time>2022-10-27T07:51:59.559Z</time>
      </trkpt>
      <trkpt lat="48.71096" lon="2.4807">
        <ele>37</ele>
        <time>2022-10-27T07:52:04.565Z</time>
      </trkpt>
      <trkpt lat="48.71096" lon="2.48064">
        <ele>36</ele>
        <time>2022-10-27T07:52:09.566Z</time>
      </trkpt>
      <trkpt lat="48.71094" lon="2.48058">
        <ele>36</ele>
        <time>2022-10-27T07:52:14.558Z</time>
      </trkpt>
      <trkpt lat="48.71095" lon="2.4805">
        <ele>36</ele>
        <time>2022-10-27T07:52:19.575Z</time>
      </trkpt>
      <trkpt lat="48.71093" lon="2.48044">
        <ele>36</ele>
        <time>2022-10-27T07:52:24.560Z</time>
      </trkpt>
      <trkpt lat="48.71091" lon="2.48038">
        <ele>36</ele>
        <time>2022-10-27T07:52:29.558Z</time>
      </trkpt>
      <trkpt lat="48.71092" lon="2.48033">
        <ele>36</ele>
        <time>2022-10-27T07:52:34.563Z</time>
      </trkpt>
      <trkpt lat="48.71091" lon="2.48029">
        <ele>36</ele>
        <time>2022-10-27T07:52:39.559Z</time>
      </trkpt>
      <trkpt lat="48.71088" lon="2.48016">
        <ele>36</ele>
        <time>2022-10-27T07:52:58.562Z</time>
      </trkpt>
      <trkpt lat="48.71089" lon="2.48015">
        <ele>36</ele>
        <time>2022-10-27T07:53:03.558Z</time>
      </trkpt>
      <trkpt lat="48.7109" lon="2.4801">
        <ele>36</ele>
        <time>2022-10-27T07:53:08.551Z</time>
      </trkpt>
      <trkpt lat="48.71091" lon="2.48009">
        <ele>36</ele>
        <time>2022-10-27T07:53:13.554Z</time>
      </trkpt>
      <trkpt lat="48.71091" lon="2.48003">
        <ele>36</ele>
        <time>2022-10-27T07:53:17.559Z</time>
      </trkpt>
      <trkpt lat="48.71092" lon="2.47997">
        <ele>36</ele>
        <time>2022-10-27T07:53:22.554Z</time>
      </trkpt>
      <trkpt lat="48.71096" lon="2.47996">
        <ele>36</ele>
        <time>2022-10-27T07:53:27.561Z</time>
      </trkpt>
      <trkpt lat="48.711" lon="2.47993">
        <ele>36</ele>
        <time>2022-10-27T07:53:32.554Z</time>
      </trkpt>
      <trkpt lat="48.71103" lon="2.47992">
        <ele>36</ele>
        <time>2022-10-27T07:53:37.555Z</time>
      </trkpt>
      <trkpt lat="48.71106" lon="2.47991">
        <ele>36</ele>
        <time>2022-10-27T07:53:42.557Z</time>
      </trkpt>
      <trkpt lat="48.71111" lon="2.4799">
        <ele>36</ele>
        <time>2022-10-27T07:53:46.552Z</time>
      </trkpt>
      <trkpt lat="48.71114" lon="2.47988">
        <ele>36</ele>
        <time>2022-10-27T07:53:50.555Z</time>
      </trkpt>
      <trkpt lat="48.71118" lon="2.47986">
        <ele>36</ele>
        <time>2022-10-27T07:53:55.554Z</time>
      </trkpt>
      <trkpt lat="48.71124" lon="2.47986">
        <ele>35</ele>
        <time>2022-10-27T07:54:00.548Z</time>
      </trkpt>
      <trkpt lat="48.71129" lon="2.47983">
        <ele>36</ele>
        <time>2022-10-27T07:54:05.551Z</time>
      </trkpt>
      <trkpt lat="48.71133" lon="2.47982">
        <ele>36</ele>
        <time>2022-10-27T07:54:10.556Z</time>
      </trkpt>
      <trkpt lat="48.71137" lon="2.4798">
        <ele>36</ele>
        <time>2022-10-27T07:54:15.554Z</time>
      </trkpt>
      <trkpt lat="48.71141" lon="2.47979">
        <ele>36</ele>
        <time>2022-10-27T07:54:19.543Z</time>
      </trkpt>
      <trkpt lat="48.71145" lon="2.47977">
        <ele>36</ele>
        <time>2022-10-27T07:54:24.555Z</time>
      </trkpt>
      <trkpt lat="48.71149" lon="2.47974">
        <ele>36</ele>
        <time>2022-10-27T07:54:29.567Z</time>
      </trkpt>
      <trkpt lat="48.71152" lon="2.47972">
        <ele>36</ele>
        <time>2022-10-27T07:54:33.545Z</time>
      </trkpt>
      <trkpt lat="48.71153" lon="2.4797">
        <ele>37</ele>
        <time>2022-10-27T07:54:38.570Z</time>
      </trkpt>
      <trkpt lat="48.71152" lon="2.47964">
        <ele>36</ele>
        <time>2022-10-27T07:54:43.563Z</time>
      </trkpt>
      <trkpt lat="48.71155" lon="2.47959">
        <ele>37</ele>
        <time>2022-10-27T07:54:48.573Z</time>
      </trkpt>
      <trkpt lat="48.71159" lon="2.47956">
        <ele>37</ele>
        <time>2022-10-27T07:54:53.577Z</time>
      </trkpt>
      <trkpt lat="48.7116" lon="2.47951">
        <ele>37</ele>
        <time>2022-10-27T07:54:58.563Z</time>
      </trkpt>
      <trkpt lat="48.71167" lon="2.47951">
        <ele>37</ele>
        <time>2022-10-27T07:55:03.559Z</time>
      </trkpt>
      <trkpt lat="48.71171" lon="2.47954">
        <ele>37</ele>
        <time>2022-10-27T07:55:07.558Z</time>
      </trkpt>
      <trkpt lat="48.71174" lon="2.47952">
        <ele>37</ele>
        <time>2022-10-27T07:55:12.569Z</time>
      </trkpt>
      <trkpt lat="48.71176" lon="2.47945">
        <ele>37</ele>
        <time>2022-10-27T07:55:17.556Z</time>
      </trkpt>
      <trkpt lat="48.71178" lon="2.4794">
        <ele>37</ele>
        <time>2022-10-27T07:55:22.577Z</time>
      </trkpt>
      <trkpt lat="48.7118" lon="2.47935">
        <ele>37</ele>
        <time>2022-10-27T07:55:27.569Z</time>
      </trkpt>
      <trkpt lat="48.71183" lon="2.47932">
        <ele>40</ele>
        <time>2022-10-27T07:55:32.568Z</time>
      </trkpt>
      <trkpt lat="48.71185" lon="2.47927">
        <ele>40</ele>
        <time>2022-10-27T07:55:37.575Z</time>
      </trkpt>
      <trkpt lat="48.71186" lon="2.47921">
        <ele>40</ele>
        <time>2022-10-27T07:55:42.577Z</time>
      </trkpt>
      <trkpt lat="48.71188" lon="2.47917">
        <ele>40</ele>
        <time>2022-10-27T07:55:47.556Z</time>
      </trkpt>
      <trkpt lat="48.71191" lon="2.47914">
        <ele>40</ele>
        <time>2022-10-27T07:55:52.575Z</time>
      </trkpt>
      <trkpt lat="48.71194" lon="2.47909">
        <ele>40</ele>
        <time>2022-10-27T07:55:57.568Z</time>
      </trkpt>
      <trkpt lat="48.71195" lon="2.47904">
        <ele>40</ele>
        <time>2022-10-27T07:56:02.562Z</time>
      </trkpt>
      <trkpt lat="48.71198" lon="2.47901">
        <ele>41</ele>
        <time>2022-10-27T07:56:07.564Z</time>
      </trkpt>
      <trkpt lat="48.71199" lon="2.47896">
        <ele>41</ele>
        <time>2022-10-27T07:56:11.568Z</time>
      </trkpt>
      <trkpt lat="48.71201" lon="2.47892">
        <ele>41</ele>
        <time>2022-10-27T07:56:16.552Z</time>
      </trkpt>
      <trkpt lat="48.71204" lon="2.47885">
        <ele>41</ele>
        <time>2022-10-27T07:56:21.554Z</time>
      </trkpt>
      <trkpt lat="48.71207" lon="2.47882">
        <ele>41</ele>
        <time>2022-10-27T07:56:26.576Z</time>
      </trkpt>
      <trkpt lat="48.7121" lon="2.47875">
        <ele>42</ele>
        <time>2022-10-27T07:56:31.559Z</time>
      </trkpt>
      <trkpt lat="48.71213" lon="2.47869">
        <ele>42</ele>
        <time>2022-10-27T07:56:41.567Z</time>
      </trkpt>
      <trkpt lat="48.71213" lon="2.47867">
        <ele>42</ele>
        <time>2022-10-27T07:56:51.557Z</time>
      </trkpt>
      <trkpt lat="48.71213" lon="2.47864">
        <ele>42</ele>
        <time>2022-10-27T07:56:56.542Z</time>
      </trkpt>
      <trkpt lat="48.71214" lon="2.47861">
        <ele>42</ele>
        <time>2022-10-27T07:57:00.568Z</time>
      </trkpt>
      <trkpt lat="48.71219" lon="2.47857">
        <ele>42</ele>
        <time>2022-10-27T07:57:05.550Z</time>
      </trkpt>
      <trkpt lat="48.7122" lon="2.47845">
        <ele>42</ele>
        <time>2022-10-27T07:57:45.552Z</time>
      </trkpt>
      <trkpt lat="48.7122" lon="2.47845">
        <ele>42</ele>
        <time>2022-10-27T07:57:50.551Z</time>
      </trkpt>
      <trkpt lat="48.71219" lon="2.47844">
        <ele>42</ele>
        <time>2022-10-27T07:57:55.550Z</time>
      </trkpt>
      <trkpt lat="48.7122" lon="2.4784">
        <ele>42</ele>
        <time>2022-10-27T07:58:00.549Z</time>
      </trkpt>
      <trkpt lat="48.71222" lon="2.47836">
        <ele>42</ele>
        <time>2022-10-27T07:58:05.552Z</time>
      </trkpt>
      <trkpt lat="48.71222" lon="2.4783">
        <ele>42</ele>
        <time>2022-10-27T07:58:10.551Z</time>
      </trkpt>
      <trkpt lat="48.71224" lon="2.47824">
        <ele>42</ele>
        <time>2022-10-27T07:58:15.554Z</time>
      </trkpt>
      <trkpt lat="48.71225" lon="2.47818">
        <ele>42</ele>
        <time>2022-10-27T07:58:20.549Z</time>
      </trkpt>
      <trkpt lat="48.71227" lon="2.47811">
        <ele>42</ele>
        <time>2022-10-27T07:58:25.551Z</time>
      </trkpt>
      <trkpt lat="48.71228" lon="2.47807">
        <ele>42</ele>
        <time>2022-10-27T07:58:29.552Z</time>
      </trkpt>
      <trkpt lat="48.71226" lon="2.47801">
        <ele>42</ele>
        <time>2022-10-27T07:58:34.555Z</time>
      </trkpt>
      <trkpt lat="48.71226" lon="2.47795">
        <ele>42</ele>
        <time>2022-10-27T07:58:38.568Z</time>
      </trkpt>
      <trkpt lat="48.71226" lon="2.47792">
        <ele>42</ele>
        <time>2022-10-27T07:58:43.556Z</time>
      </trkpt>
      <trkpt lat="48.71228" lon="2.4779">
        <ele>41</ele>
        <time>2022-10-27T07:58:47.555Z</time>
      </trkpt>
      <trkpt lat="48.71227" lon="2.47783">
        <ele>41</ele>
        <time>2022-10-27T07:58:52.555Z</time>
      </trkpt>
      <trkpt lat="48.71226" lon="2.47775">
        <ele>41</ele>
        <time>2022-10-27T07:58:57.560Z</time>
      </trkpt>
      <trkpt lat="48.71225" lon="2.47771">
        <ele>41</ele>
        <time>2022-10-27T07:59:02.552Z</time>
      </trkpt>
      <trkpt lat="48.71232" lon="2.47756">
        <ele>40</ele>
        <time>2022-10-27T08:00:20.551Z</time>
      </trkpt>
      <trkpt lat="48.71234" lon="2.47755">
        <ele>40</ele>
        <time>2022-10-27T08:00:25.558Z</time>
      </trkpt>
      <trkpt lat="48.71234" lon="2.47754">
        <ele>40</ele>
        <time>2022-10-27T08:00:29.554Z</time>
      </trkpt>
      <trkpt lat="48.71235" lon="2.47754">
        <ele>40</ele>
        <time>2022-10-27T08:00:34.551Z</time>
      </trkpt>
      <trkpt lat="48.71237" lon="2.47753">
        <ele>40</ele>
        <time>2022-10-27T08:00:39.565Z</time>
      </trkpt>
      <trkpt lat="48.71245" lon="2.4775">
        <ele>40</ele>
        <time>2022-10-27T08:00:58.547Z</time>
      </trkpt>
      <trkpt lat="48.71246" lon="2.47752">
        <ele>40</ele>
        <time>2022-10-27T08:01:03.553Z</time>
      </trkpt>
      <trkpt lat="48.71247" lon="2.47752">
        <ele>40</ele>
        <time>2022-10-27T08:01:08.565Z</time>
      </trkpt>
      <trkpt lat="48.71247" lon="2.47754">
        <ele>40</ele>
        <time>2022-10-27T08:01:12.551Z</time>
      </trkpt>
      <trkpt lat="48.7125" lon="2.47755">
        <ele>40</ele>
        <time>2022-10-27T08:01:17.552Z</time>
      </trkpt>
      <trkpt lat="48.71252" lon="2.47755">
        <ele>40</ele>
        <time>2022-10-27T08:01:22.546Z</time>
      </trkpt>
      <trkpt lat="48.71254" lon="2.47752">
        <ele>40</ele>
        <time>2022-10-27T08:01:26.553Z</time>
      </trkpt>
      <trkpt lat="48.71256" lon="2.47747">
        <ele>40</ele>
        <time>2022-10-27T08:01:31.550Z</time>
      </trkpt>
      <trkpt lat="48.71257" lon="2.47746">
        <ele>40</ele>
        <time>2022-10-27T08:01:36.557Z</time>
      </trkpt>
      <trkpt lat="48.71258" lon="2.47743">
        <ele>40</ele>
        <time>2022-10-27T08:01:41.545Z</time>
      </trkpt>
      <trkpt lat="48.7126" lon="2.47742">
        <ele>40</ele>
        <time>2022-10-27T08:01:46.542Z</time>
      </trkpt>
      <trkpt lat="48.71268" lon="2.47746">
        <ele>40</ele>
        <time>2022-10-27T08:01:51.547Z</time>
      </trkpt>
      <trkpt lat="48.71275" lon="2.47751">
        <ele>40</ele>
        <time>2022-10-27T08:01:56.546Z</time>
      </trkpt>
      <trkpt lat="48.71278" lon="2.47749">
        <ele>40</ele>
        <time>2022-10-27T08:02:01.542Z</time>
      </trkpt>
      <trkpt lat="48.71284" lon="2.47744">
        <ele>40</ele>
        <time>2022-10-27T08:03:02.551Z</time>
      </trkpt>
      <trkpt lat="48.71285" lon="2.47744">
        <ele>40</ele>
        <time>2022-10-27T08:03:07.552Z</time>
      </trkpt>
      <trkpt lat="48.71286" lon="2.47743">
        <ele>40</ele>
        <time>2022-10-27T08:03:12.548Z</time>
      </trkpt>
      <trkpt lat="48.71286" lon="2.47743">
        <ele>40</ele>
        <time>2022-10-27T08:03:17.562Z</time>
      </trkpt>
      <trkpt lat="48.71287" lon="2.47743">
        <ele>40</ele>
        <time>2022-10-27T08:03:22.548Z</time>
      </trkpt>
      <trkpt lat="48.71285" lon="2.47742">
        <ele>40</ele>
        <time>2022-10-27T08:03:57.556Z</time>
      </trkpt>
      <trkpt lat="48.71285" lon="2.4774">
        <ele>40</ele>
        <time>2022-10-27T08:04:11.558Z</time>
      </trkpt>
      <trkpt lat="48.71287" lon="2.47736">
        <ele>39</ele>
        <time>2022-10-27T08:04:16.555Z</time>
      </trkpt>
      <trkpt lat="48.71288" lon="2.47732">
        <ele>39</ele>
        <time>2022-10-27T08:04:21.561Z</time>
      </trkpt>
      <trkpt lat="48.71291" lon="2.47727">
        <ele>39</ele>
        <time>2022-10-27T08:04:26.557Z</time>
      </trkpt>
      <trkpt lat="48.71294" lon="2.47722">
        <ele>38</ele>
        <time>2022-10-27T08:04:31.569Z</time>
      </trkpt>
      <trkpt lat="48.71294" lon="2.47717">
        <ele>38</ele>
        <time>2022-10-27T08:04:36.556Z</time>
      </trkpt>
      <trkpt lat="48.71298" lon="2.47712">
        <ele>38</ele>
        <time>2022-10-27T08:04:41.546Z</time>
      </trkpt>
      <trkpt lat="48.71302" lon="2.4771">
        <ele>38</ele>
        <time>2022-10-27T08:04:45.544Z</time>
      </trkpt>
      <trkpt lat="48.71305" lon="2.47707">
        <ele>37</ele>
        <time>2022-10-27T08:04:50.555Z</time>
      </trkpt>
      <trkpt lat="48.7131" lon="2.47706">
        <ele>37</ele>
        <time>2022-10-27T08:04:55.551Z</time>
      </trkpt>
      <trkpt lat="48.71313" lon="2.47707">
        <ele>37</ele>
        <time>2022-10-27T08:05:00.554Z</time>
      </trkpt>
      <trkpt lat="48.71316" lon="2.47708">
        <ele>37</ele>
        <time>2022-10-27T08:05:05.554Z</time>
      </trkpt>
      <trkpt lat="48.71318" lon="2.47708">
        <ele>38</ele>
        <time>2022-10-27T08:05:10.557Z</time>
      </trkpt>
      <trkpt lat="48.71317" lon="2.47703">
        <ele>37</ele>
        <time>2022-10-27T08:05:15.560Z</time>
      </trkpt>
      <trkpt lat="48.71314" lon="2.47698">
        <ele>37</ele>
        <time>2022-10-27T08:05:19.564Z</time>
      </trkpt>
      <trkpt lat="48.71314" lon="2.4769">
        <ele>37</ele>
        <time>2022-10-27T08:05:24.567Z</time>
      </trkpt>
      <trkpt lat="48.71312" lon="2.47679">
        <ele>37</ele>
        <time>2022-10-27T08:06:04.551Z</time>
      </trkpt>
      <trkpt lat="48.71312" lon="2.47678">
        <ele>37</ele>
        <time>2022-10-27T08:06:09.550Z</time>
      </trkpt>
      <trkpt lat="48.71312" lon="2.47673">
        <ele>37</ele>
        <time>2022-10-27T08:06:14.551Z</time>
      </trkpt>
      <trkpt lat="48.71312" lon="2.47669">
        <ele>37</ele>
        <time>2022-10-27T08:06:18.548Z</time>
      </trkpt>
      <trkpt lat="48.71312" lon="2.47666">
        <ele>37</ele>
        <time>2022-10-27T08:06:23.548Z</time>
      </trkpt>
      <trkpt lat="48.71301" lon="2.47659">
        <ele>37</ele>
        <time>2022-10-27T08:08:00.556Z</time>
      </trkpt>
      <trkpt lat="48.713" lon="2.47659">
        <ele>37</ele>
        <time>2022-10-27T08:08:14.557Z</time>
      </trkpt>
      <trkpt lat="48.71296" lon="2.47659">
        <ele>37</ele>
        <time>2022-10-27T08:08:19.555Z</time>
      </trkpt>
      <trkpt lat="48.71294" lon="2.47659">
        <ele>37</ele>
        <time>2022-10-27T08:08:23.555Z</time>
      </trkpt>
      <trkpt lat="48.71291" lon="2.47659">
        <ele>37</ele>
        <time>2022-10-27T08:08:28.546Z</time>
      </trkpt>
      <trkpt lat="48.7129" lon="2.47658">
        <ele>37</ele>
        <time>2022-10-27T08:08:33.552Z</time>
      </trkpt>
      <trkpt lat="48.71286" lon="2.47653">
        <ele>37</ele>
        <time>2022-10-27T08:08:38.555Z</time>
      </trkpt>
      <trkpt lat="48.71283" lon="2.47652">
        <ele>37</ele>
        <time>2022-10-27T08:08:43.555Z</time>
      </trkpt>
      <trkpt lat="48.71282" lon="2.47652">
        <ele>37</ele>
        <time>2022-10-27T08:08:47.565Z</time>
      </trkpt>
      <trkpt lat="48.71282" lon="2.47653">
        <ele>37</ele>
        <time>2022-10-27T08:09:01.573Z</time>
      </trkpt>
      <trkpt lat="48.71281" lon="2.47654">
        <ele>37</ele>
        <time>2022-10-27T08:09:15.569Z</time>
      </trkpt>
      <trkpt lat="48.71279" lon="2.47651">
        <ele>37</ele>
        <time>2022-10-27T08:09:20.543Z</time>
      </trkpt>
      <trkpt lat="48.71277" lon="2.47648">
        <ele>37</ele>
        <time>2022-10-27T08:09:25.557Z</time>
      </trkpt>
      <trkpt lat="48.71272" lon="2.47644">
        <ele>37</ele>
        <time>2022-10-27T08:09:30.556Z</time>
      </trkpt>
      <trkpt lat="48.71268" lon="2.47642">
        <ele>37</ele>
        <time>2022-10-27T08:09:35.567Z</time>
      </trkpt>
      <trkpt lat="48.71264" lon="2.47639">
        <ele>37</ele>
        <time>2022-10-27T08:09:40.560Z</time>
      </trkpt>
      <trkpt lat="48.71264" lon="2.47635">
        <ele>37</ele>
        <time>2022-10-27T08:09:45.561Z</time>
      </trkpt>
      <trkpt lat="48.71265" lon="2.47628">
        <ele>37</ele>
        <time>2022-10-27T08:09:50.578Z</time>
      </trkpt>
      <trkpt lat="48.71264" lon="2.47622">
        <ele>38</ele>
        <time>2022-10-27T08:09:55.545Z</time>
      </trkpt>
      <trkpt lat="48.71263" lon="2.47618">
        <ele>39</ele>
        <time>2022-10-27T08:09:59.582Z</time>
      </trkpt>
      <trkpt lat="48.71264" lon="2.47612">
        <ele>39</ele>
        <time>2022-10-27T08:10:04.568Z</time>
      </trkpt>
      <trkpt lat="48.71263" lon="2.47608">
        <ele>39</ele>
        <time>2022-10-27T08:10:09.564Z</time>
      </trkpt>
      <trkpt lat="48.71262" lon="2.47604">
        <ele>39</ele>
        <time>2022-10-27T08:10:14.568Z</time>
      </trkpt>
      <trkpt lat="48.71262" lon="2.47599">
        <ele>39</ele>
        <time>2022-10-27T08:10:19.555Z</time>
      </trkpt>
      <trkpt lat="48.71262" lon="2.47594">
        <ele>40</ele>
        <time>2022-10-27T08:10:23.593Z</time>
      </trkpt>
      <trkpt lat="48.71262" lon="2.47588">
        <ele>40</ele>
        <time>2022-10-27T08:10:28.585Z</time>
      </trkpt>
      <trkpt lat="48.71262" lon="2.47585">
        <ele>40</ele>
        <time>2022-10-27T08:10:32.588Z</time>
      </trkpt>
      <trkpt lat="48.71261" lon="2.4758">
        <ele>40</ele>
        <time>2022-10-27T08:10:37.591Z</time>
      </trkpt>
      <trkpt lat="48.71259" lon="2.47578">
        <ele>40</ele>
        <time>2022-10-27T08:10:42.588Z</time>
      </trkpt>
      <trkpt lat="48.71258" lon="2.47575">
        <ele>40</ele>
        <time>2022-10-27T08:10:47.594Z</time>
      </trkpt>
      <trkpt lat="48.71257" lon="2.47573">
        <ele>40</ele>
        <time>2022-10-27T08:10:52.591Z</time>
      </trkpt>
      <trkpt lat="48.71257" lon="2.47568">
        <ele>38</ele>
        <time>2022-10-27T08:10:57.574Z</time>
      </trkpt>
      <trkpt lat="48.71257" lon="2.47561">
        <ele>38</ele>
        <time>2022-10-27T08:11:01.593Z</time>
      </trkpt>
      <trkpt lat="48.71256" lon="2.47555">
        <ele>38</ele>
        <time>2022-10-27T08:11:06.597Z</time>
      </trkpt>
      <trkpt lat="48.71256" lon="2.47551">
        <ele>38</ele>
        <time>2022-10-27T08:11:11.594Z</time>
      </trkpt>
      <trkpt lat="48.71253" lon="2.47542">
        <ele>38</ele>
        <time>2022-10-27T08:11:16.594Z</time>
      </trkpt>
      <trkpt lat="48.71251" lon="2.47538">
        <ele>36</ele>
        <time>2022-10-27T08:11:21.594Z</time>
      </trkpt>
      <trkpt lat="48.7125" lon="2.47532">
        <ele>36</ele>
        <time>2022-10-27T08:11:26.601Z</time>
      </trkpt>
      <trkpt lat="48.71249" lon="2.4753">
        <ele>36</ele>
        <time>2022-10-27T08:11:31.599Z</time>
      </trkpt>
      <trkpt lat="48.71247" lon="2.47527">
        <ele>36</ele>
        <time>2022-10-27T08:11:36.596Z</time>
      </trkpt>
      <trkpt lat="48.71245" lon="2.47527">
        <ele>36</ele>
        <time>2022-10-27T08:11:40.601Z</time>
      </trkpt>
      <trkpt lat="48.71241" lon="2.47528">
        <ele>36</ele>
        <time>2022-10-27T08:11:45.588Z</time>
      </trkpt>
      <trkpt lat="48.71239" lon="2.47529">
        <ele>36</ele>
        <time>2022-10-27T08:11:50.592Z</time>
      </trkpt>
      <trkpt lat="48.71235" lon="2.47531">
        <ele>36</ele>
        <time>2022-10-27T08:11:55.595Z</time>
      </trkpt>
      <trkpt lat="48.71234" lon="2.4753">
        <ele>36</ele>
        <time>2022-10-27T08:11:59.599Z</time>
      </trkpt>
      <trkpt lat="48.71229" lon="2.47531">
        <ele>36</ele>
        <time>2022-10-27T08:12:04.574Z</time>
      </trkpt>
      <trkpt lat="48.71226" lon="2.47532">
        <ele>36</ele>
        <time>2022-10-27T08:12:08.591Z</time>
      </trkpt>
      <trkpt lat="48.71222" lon="2.47531">
        <ele>36</ele>
        <time>2022-10-27T08:12:13.577Z</time>
      </trkpt>
      <trkpt lat="48.71218" lon="2.4753">
        <ele>36</ele>
        <time>2022-10-27T08:12:18.586Z</time>
      </trkpt>
      <trkpt lat="48.71216" lon="2.4753">
        <ele>36</ele>
        <time>2022-10-27T08:12:23.594Z</time>
      </trkpt>
      <trkpt lat="48.71211" lon="2.47529">
        <ele>36</ele>
        <time>2022-10-27T08:12:28.598Z</time>
      </trkpt>
      <trkpt lat="48.71208" lon="2.47527">
        <ele>35</ele>
        <time>2022-10-27T08:12:33.597Z</time>
      </trkpt>
      <trkpt lat="48.71208" lon="2.47524">
        <ele>35</ele>
        <time>2022-10-27T08:12:38.589Z</time>
      </trkpt>
      <trkpt lat="48.71208" lon="2.47518">
        <ele>35</ele>
        <time>2022-10-27T08:12:43.587Z</time>
      </trkpt>
      <trkpt lat="48.71208" lon="2.47513">
        <ele>34</ele>
        <time>2022-10-27T08:12:47.596Z</time>
      </trkpt>
      <trkpt lat="48.71206" lon="2.47507">
        <ele>34</ele>
        <time>2022-10-27T08:12:52.603Z</time>
      </trkpt>
      <trkpt lat="48.71203" lon="2.47503">
        <ele>34</ele>
        <time>2022-10-27T08:12:57.594Z</time>
      </trkpt>
      <trkpt lat="48.712" lon="2.47499">
        <ele>34</ele>
        <time>2022-10-27T08:13:02.606Z</time>
      </trkpt>
      <trkpt lat="48.71197" lon="2.47498">
        <ele>34</ele>
        <time>2022-10-27T08:13:07.591Z</time>
      </trkpt>
      <trkpt lat="48.71194" lon="2.47499">
        <ele>34</ele>
        <time>2022-10-27T08:13:12.594Z</time>
      </trkpt>
      <trkpt lat="48.71189" lon="2.475">
        <ele>34</ele>
        <time>2022-10-27T08:13:17.592Z</time>
      </trkpt>
      <trkpt lat="48.71187" lon="2.475">
        <ele>34</ele>
        <time>2022-10-27T08:13:22.590Z</time>
      </trkpt>
      <trkpt lat="48.71185" lon="2.47502">
        <ele>34</ele>
        <time>2022-10-27T08:13:27.602Z</time>
      </trkpt>
      <trkpt lat="48.71185" lon="2.47502">
        <ele>34</ele>
        <time>2022-10-27T08:13:32.596Z</time>
      </trkpt>
      <trkpt lat="48.7118" lon="2.47502">
        <ele>36</ele>
        <time>2022-10-27T08:13:37.596Z</time>
      </trkpt>
      <trkpt lat="48.71174" lon="2.47505">
        <ele>36</ele>
        <time>2022-10-27T08:13:42.594Z</time>
      </trkpt>
      <trkpt lat="48.7117" lon="2.47503">
        <ele>36</ele>
        <time>2022-10-27T08:13:47.594Z</time>
      </trkpt>
      <trkpt lat="48.71167" lon="2.47503">
        <ele>36</ele>
        <time>2022-10-27T08:13:52.609Z</time>
      </trkpt>
      <trkpt lat="48.71164" lon="2.47504">
        <ele>36</ele>
        <time>2022-10-27T08:13:57.599Z</time>
      </trkpt>
      <trkpt lat="48.7115" lon="2.4751">
        <ele>38</ele>
        <time>2022-10-27T08:15:00.584Z</time>
      </trkpt>
      <trkpt lat="48.71149" lon="2.47512">
        <ele>38</ele>
        <time>2022-10-27T08:15:05.577Z</time>
      </trkpt>
      <trkpt lat="48.71149" lon="2.47512">
        <ele>38</ele>
        <time>2022-10-27T08:15:09.590Z</time>
      </trkpt>
      <trkpt lat="48.71148" lon="2.47512">
        <ele>38</ele>
        <time>2022-10-27T08:15:19.589Z</time>
      </trkpt>
      <trkpt lat="48.71148" lon="2.47513">
        <ele>38</ele>
        <time>2022-10-27T08:15:24.578Z</time>
      </trkpt>
      <trkpt lat="48.71151" lon="2.47515">
        <ele>38</ele>
        <time>2022-10-27T08:16:28.591Z</time>
      </trkpt>
      <trkpt lat="48.71151" lon="2.47517">
        <ele>38</ele>
        <time>2022-10-27T08:16:33.573Z</time>
      </trkpt>
      <trkpt lat="48.71151" lon="2.47518">
        <ele>38</ele>
        <time>2022-10-27T08:16:37.600Z</time>
      </trkpt>
      <trkpt lat="48.71153" lon="2.47522">
        <ele>36</ele>
        <time>2022-10-27T08:16:42.590Z</time>
      </trkpt>
      <trkpt lat="48.71154" lon="2.47528">
        <ele>36</ele>
        <time>2022-10-27T08:16:47.583Z</time>
      </trkpt>
      <trkpt lat="48.71154" lon="2.47533">
        <ele>36</ele>
        <time>2022-10-27T08:16:52.583Z</time>
      </trkpt>
      <trkpt lat="48.71154" lon="2.47536">
        <ele>36</ele>
        <time>2022-10-27T08:16:57.572Z</time>
      </trkpt>
      <trkpt lat="48.71154" lon="2.47541">
        <ele>36</ele>
        <time>2022-10-27T08:17:02.570Z</time>
      </trkpt>
      <trkpt lat="48.71154" lon="2.47546">
        <ele>36</ele>
        <time>2022-10-27T08:17:07.584Z</time>
      </trkpt>
      <trkpt lat="48.71154" lon="2.47551">
        <ele>36</ele>
        <time>2022-10-27T08:17:12.581Z</time>
      </trkpt>
      <trkpt lat="48.71154" lon="2.47555">
        <ele>36</ele>
        <time>2022-10-27T08:17:16.590Z</time>
      </trkpt>
      <trkpt lat="48.71155" lon="2.47562">
        <ele>36</ele>
        <time>2022-10-27T08:17:20.726Z</time>
      </trkpt>
      <trkpt lat="48.71155" lon="2.47569">
        <ele>36</ele>
        <time>2022-10-27T08:17:25.710Z</time>
      </trkpt>
      <trkpt lat="48.71154" lon="2.47574">
        <ele>36</ele>
        <time>2022-10-27T08:17:30.596Z</time>
      </trkpt>
      <trkpt lat="48.71156" lon="2.47579">
        <ele>36</ele>
        <time>2022-10-27T08:17:34.714Z</time>
      </trkpt>
      <trkpt lat="48.71158" lon="2.47585">
        <ele>36</ele>
        <time>2022-10-27T08:17:39.589Z</time>
      </trkpt>
      <trkpt lat="48.7116" lon="2.4759">
        <ele>36</ele>
        <time>2022-10-27T08:17:44.590Z</time>
      </trkpt>
      <trkpt lat="48.71165" lon="2.47594">
        <ele>36</ele>
        <time>2022-10-27T08:17:49.583Z</time>
      </trkpt>
      <trkpt lat="48.7117" lon="2.47597">
        <ele>37</ele>
        <time>2022-10-27T08:17:54.589Z</time>
      </trkpt>
      <trkpt lat="48.71175" lon="2.47598">
        <ele>37</ele>
        <time>2022-10-27T08:17:59.581Z</time>
      </trkpt>
      <trkpt lat="48.71179" lon="2.47599">
        <ele>37</ele>
        <time>2022-10-27T08:18:04.590Z</time>
      </trkpt>
      <trkpt lat="48.71182" lon="2.476">
        <ele>38</ele>
        <time>2022-10-27T08:18:08.604Z</time>
      </trkpt>
      <trkpt lat="48.71183" lon="2.47597">
        <ele>38</ele>
        <time>2022-10-27T08:18:13.592Z</time>
      </trkpt>
      <trkpt lat="48.71183" lon="2.47598">
        <ele>38</ele>
        <time>2022-10-27T08:18:17.603Z</time>
      </trkpt>
      <trkpt lat="48.71182" lon="2.47604">
        <ele>38</ele>
        <time>2022-10-27T08:18:22.605Z</time>
      </trkpt>
      <trkpt lat="48.7118" lon="2.4761">
        <ele>37</ele>
        <time>2022-10-27T08:18:26.595Z</time>
      </trkpt>
      <trkpt lat="48.7118" lon="2.47612">
        <ele>37</ele>
        <time>2022-10-27T08:18:30.718Z</time>
      </trkpt>
      <trkpt lat="48.71179" lon="2.47614">
        <ele>37</ele>
        <time>2022-10-27T08:18:35.579Z</time>
      </trkpt>
      <trkpt lat="48.71177" lon="2.47616">
        <ele>37</ele>
        <time>2022-10-27T08:18:43.607Z</time>
      </trkpt>
      <trkpt lat="48.71176" lon="2.47622">
        <ele>37</ele>
        <time>2022-10-27T08:18:48.581Z</time>
      </trkpt>
      <trkpt lat="48.71174" lon="2.47626">
        <ele>38</ele>
        <time>2022-10-27T08:18:53.588Z</time>
      </trkpt>
      <trkpt lat="48.71173" lon="2.47628">
        <ele>38</ele>
        <time>2022-10-27T08:18:57.579Z</time>
      </trkpt>
      <trkpt lat="48.71171" lon="2.4763">
        <ele>38</ele>
        <time>2022-10-27T08:19:02.581Z</time>
      </trkpt>
      <trkpt lat="48.71166" lon="2.47633">
        <ele>38</ele>
        <time>2022-10-27T08:19:07.597Z</time>
      </trkpt>
      <trkpt lat="48.71164" lon="2.47636">
        <ele>38</ele>
        <time>2022-10-27T08:19:11.718Z</time>
      </trkpt>
      <trkpt lat="48.71161" lon="2.47642">
        <ele>38</ele>
        <time>2022-10-27T08:19:20.705Z</time>
      </trkpt>
      <trkpt lat="48.71161" lon="2.47644">
        <ele>38</ele>
        <time>2022-10-27T08:19:25.706Z</time>
      </trkpt>
      <trkpt lat="48.7116" lon="2.47643">
        <ele>38</ele>
        <time>2022-10-27T08:19:30.581Z</time>
      </trkpt>
      <trkpt lat="48.71156" lon="2.47644">
        <ele>38</ele>
        <time>2022-10-27T08:19:35.570Z</time>
      </trkpt>
      <trkpt lat="48.71153" lon="2.47644">
        <ele>37</ele>
        <time>2022-10-27T08:19:40.579Z</time>
      </trkpt>
      <trkpt lat="48.71148" lon="2.47667">
        <ele>38</ele>
        <time>2022-10-27T08:20:36.590Z</time>
      </trkpt>
      <trkpt lat="48.7115" lon="2.47667">
        <ele>38</ele>
        <time>2022-10-27T08:20:40.730Z</time>
      </trkpt>
      <trkpt lat="48.7115" lon="2.4767">
        <ele>38</ele>
        <time>2022-10-27T08:20:45.587Z</time>
      </trkpt>
      <trkpt lat="48.71151" lon="2.47675">
        <ele>38</ele>
        <time>2022-10-27T08:20:50.716Z</time>
      </trkpt>
      <trkpt lat="48.71152" lon="2.47683">
        <ele>38</ele>
        <time>2022-10-27T08:20:55.600Z</time>
      </trkpt>
      <trkpt lat="48.71152" lon="2.47691">
        <ele>38</ele>
        <time>2022-10-27T08:21:00.601Z</time>
      </trkpt>
      <trkpt lat="48.71152" lon="2.47698">
        <ele>38</ele>
        <time>2022-10-27T08:21:05.599Z</time>
      </trkpt>
      <trkpt lat="48.71148" lon="2.47701">
        <ele>38</ele>
        <time>2022-10-27T08:21:09.723Z</time>
      </trkpt>
      <trkpt lat="48.71144" lon="2.47702">
        <ele>38</ele>
        <time>2022-10-27T08:21:14.606Z</time>
      </trkpt>
      <trkpt lat="48.71139" lon="2.47701">
        <ele>38</ele>
        <time>2022-10-27T08:21:19.603Z</time>
      </trkpt>
      <trkpt lat="48.71133" lon="2.47701">
        <ele>38</ele>
        <time>2022-10-27T08:21:24.598Z</time>
      </trkpt>
      <trkpt lat="48.71132" lon="2.47704">
        <ele>38</ele>
        <time>2022-10-27T08:21:29.591Z</time>
      </trkpt>
      <trkpt lat="48.71132" lon="2.47705">
        <ele>38</ele>
        <time>2022-10-27T08:21:34.582Z</time>
      </trkpt>
      <trkpt lat="48.7113" lon="2.47706">
        <ele>38</ele>
        <time>2022-10-27T08:21:38.600Z</time>
      </trkpt>
      <trkpt lat="48.71129" lon="2.47708">
        <ele>38</ele>
        <time>2022-10-27T08:21:42.623Z</time>
      </trkpt>
      <trkpt lat="48.71124" lon="2.47709">
        <ele>38</ele>
        <time>2022-10-27T08:21:47.592Z</time>
      </trkpt>
      <trkpt lat="48.71124" lon="2.47711">
        <ele>38</ele>
        <time>2022-10-27T08:21:51.607Z</time>
      </trkpt>
      <trkpt lat="48.7112" lon="2.47709">
        <ele>38</ele>
        <time>2022-10-27T08:21:56.601Z</time>
      </trkpt>
      <trkpt lat="48.71117" lon="2.47711">
        <ele>38</ele>
        <time>2022-10-27T08:22:00.605Z</time>
      </trkpt>
      <trkpt lat="48.71114" lon="2.47714">
        <ele>38</ele>
        <time>2022-10-27T08:22:05.591Z</time>
      </trkpt>
      <trkpt lat="48.71112" lon="2.47715">
        <ele>38</ele>
        <time>2022-10-27T08:22:09.602Z</time>
      </trkpt>
      <trkpt lat="48.7111" lon="2.47717">
        <ele>38</ele>
        <time>2022-10-27T08:22:14.601Z</time>
      </trkpt>
      <trkpt lat="48.71106" lon="2.47719">
        <ele>38</ele>
        <time>2022-10-27T08:22:19.588Z</time>
      </trkpt>
      <trkpt lat="48.71103" lon="2.4772">
        <ele>38</ele>
        <time>2022-10-27T08:22:23.614Z</time>
      </trkpt>
      <trkpt lat="48.71098" lon="2.4772">
        <ele>38</ele>
        <time>2022-10-27T08:22:28.602Z</time>
      </trkpt>
      <trkpt lat="48.71095" lon="2.47723">
        <ele>39</ele>
        <time>2022-10-27T08:22:33.609Z</time>
      </trkpt>
      <trkpt lat="48.71093" lon="2.47724">
        <ele>39</ele>
        <time>2022-10-27T08:22:38.607Z</time>
      </trkpt>
      <trkpt lat="48.71088" lon="2.47726">
        <ele>39</ele>
        <time>2022-10-27T08:22:43.604Z</time>
      </trkpt>
      <trkpt lat="48.71084" lon="2.47725">
        <ele>39</ele>
        <time>2022-10-27T08:22:48.593Z</time>
      </trkpt>
      <trkpt lat="48.7108" lon="2.47726">
        <ele>39</ele>
        <time>2022-10-27T08:22:53.603Z</time>
      </trkpt>
      <trkpt lat="48.71076" lon="2.47728">
        <ele>39</ele>
        <time>2022-10-27T08:22:58.578Z</time>
      </trkpt>
      <trkpt lat="48.71071" lon="2.47729">
        <ele>39</ele>
        <time>2022-10-27T08:23:03.602Z</time>
      </trkpt>
      <trkpt lat="48.71068" lon="2.4773">
        <ele>38</ele>
        <time>2022-10-27T08:23:08.598Z</time>
      </trkpt>
      <trkpt lat="48.71066" lon="2.4773">
        <ele>38</ele>
        <time>2022-10-27T08:23:13.597Z</time>
      </trkpt>
      <trkpt lat="48.71062" lon="2.47729">
        <ele>38</ele>
        <time>2022-10-27T08:23:17.593Z</time>
      </trkpt>
      <trkpt lat="48.71057" lon="2.4773">
        <ele>38</ele>
        <time>2022-10-27T08:23:22.580Z</time>
      </trkpt>
      <trkpt lat="48.71054" lon="2.47731">
        <ele>38</ele>
        <time>2022-10-27T08:23:26.601Z</time>
      </trkpt>
      <trkpt lat="48.7105" lon="2.47734">
        <ele>38</ele>
        <time>2022-10-27T08:23:31.588Z</time>
      </trkpt>
      <trkpt lat="48.71047" lon="2.47738">
        <ele>38</ele>
        <time>2022-10-27T08:23:35.719Z</time>
      </trkpt>
      <trkpt lat="48.71045" lon="2.47739">
        <ele>38</ele>
        <time>2022-10-27T08:23:40.598Z</time>
      </trkpt>
      <trkpt lat="48.71043" lon="2.47746">
        <ele>38</ele>
        <time>2022-10-27T08:23:54.587Z</time>
      </trkpt>
      <trkpt lat="48.71043" lon="2.47742">
        <ele>38</ele>
        <time>2022-10-27T08:23:59.602Z</time>
      </trkpt>
      <trkpt lat="48.71043" lon="2.47742">
        <ele>38</ele>
        <time>2022-10-27T08:24:04.605Z</time>
      </trkpt>
      <trkpt lat="48.71043" lon="2.47739">
        <ele>38</ele>
        <time>2022-10-27T08:24:09.590Z</time>
      </trkpt>
      <trkpt lat="48.71036" lon="2.47737">
        <ele>36</ele>
        <time>2022-10-27T08:24:14.605Z</time>
      </trkpt>
      <trkpt lat="48.71025" lon="2.47751">
        <ele>36</ele>
        <time>2022-10-27T08:26:48.598Z</time>
      </trkpt>
      <trkpt lat="48.71022" lon="2.47749">
        <ele>36</ele>
        <time>2022-10-27T08:26:53.589Z</time>
      </trkpt>
      <trkpt lat="48.71018" lon="2.4775">
        <ele>36</ele>
        <time>2022-10-27T08:26:58.582Z</time>
      </trkpt>
      <trkpt lat="48.71017" lon="2.47747">
        <ele>36</ele>
        <time>2022-10-27T08:27:03.581Z</time>
      </trkpt>
      <trkpt lat="48.71017" lon="2.47744">
        <ele>36</ele>
        <time>2022-10-27T08:27:08.579Z</time>
      </trkpt>
      <trkpt lat="48.71015" lon="2.47741">
        <ele>36</ele>
        <time>2022-10-27T08:27:13.584Z</time>
      </trkpt>
      <trkpt lat="48.71012" lon="2.47736">
        <ele>35</ele>
        <time>2022-10-27T08:27:17.601Z</time>
      </trkpt>
      <trkpt lat="48.71009" lon="2.47735">
        <ele>34</ele>
        <time>2022-10-27T08:27:22.616Z</time>
      </trkpt>
      <trkpt lat="48.71007" lon="2.47731">
        <ele>34</ele>
        <time>2022-10-27T08:27:27.598Z</time>
      </trkpt>
      <trkpt lat="48.71003" lon="2.47728">
        <ele>34</ele>
        <time>2022-10-27T08:27:32.597Z</time>
      </trkpt>
      <trkpt lat="48.70999" lon="2.47725">
        <ele>34</ele>
        <time>2022-10-27T08:27:37.607Z</time>
      </trkpt>
      <trkpt lat="48.70996" lon="2.47722">
        <ele>34</ele>
        <time>2022-10-27T08:27:40.594Z</time>
      </trkpt>
      <trkpt lat="48.70994" lon="2.47717">
        <ele>34</ele>
        <time>2022-10-27T08:27:46.621Z</time>
      </trkpt>
      <trkpt lat="48.70991" lon="2.47713">
        <ele>34</ele>
        <time>2022-10-27T08:27:51.589Z</time>
      </trkpt>
      <trkpt lat="48.70989" lon="2.47711">
        <ele>34</ele>
        <time>2022-10-27T08:27:56.609Z</time>
      </trkpt>
      <trkpt lat="48.70986" lon="2.47708">
        <ele>34</ele>
        <time>2022-10-27T08:28:01.602Z</time>
      </trkpt>
      <trkpt lat="48.70985" lon="2.47705">
        <ele>33</ele>
        <time>2022-10-27T08:28:06.612Z</time>
      </trkpt>
      <trkpt lat="48.70982" lon="2.47701">
        <ele>33</ele>
        <time>2022-10-27T08:28:11.590Z</time>
      </trkpt>
      <trkpt lat="48.7098" lon="2.47697">
        <ele>33</ele>
        <time>2022-10-27T08:28:15.604Z</time>
      </trkpt>
      <trkpt lat="48.70977" lon="2.47695">
        <ele>33</ele>
        <time>2022-10-27T08:28:19.606Z</time>
      </trkpt>
      <trkpt lat="48.70974" lon="2.47692">
        <ele>33</ele>
        <time>2022-10-27T08:28:24.585Z</time>
      </trkpt>
      <trkpt lat="48.70971" lon="2.47688">
        <ele>33</ele>
        <time>2022-10-27T08:28:29.608Z</time>
      </trkpt>
      <trkpt lat="48.70966" lon="2.47679">
        <ele>33</ele>
        <time>2022-10-27T08:29:14.598Z</time>
      </trkpt>
      <trkpt lat="48.70966" lon="2.47676">
        <ele>33</ele>
        <time>2022-10-27T08:29:18.615Z</time>
      </trkpt>
      <trkpt lat="48.70966" lon="2.47674">
        <ele>33</ele>
        <time>2022-10-27T08:29:23.586Z</time>
      </trkpt>
      <trkpt lat="48.70967" lon="2.47671">
        <ele>33</ele>
        <time>2022-10-27T08:29:28.601Z</time>
      </trkpt>
      <trkpt lat="48.70968" lon="2.47667">
        <ele>33</ele>
        <time>2022-10-27T08:29:33.604Z</time>
      </trkpt>
      <trkpt lat="48.7097" lon="2.47661">
        <ele>33</ele>
        <time>2022-10-27T08:29:38.601Z</time>
      </trkpt>
      <trkpt lat="48.70971" lon="2.47657">
        <ele>33</ele>
        <time>2022-10-27T08:29:42.595Z</time>
      </trkpt>
      <trkpt lat="48.70974" lon="2.47652">
        <ele>34</ele>
        <time>2022-10-27T08:29:47.586Z</time>
      </trkpt>
      <trkpt lat="48.70975" lon="2.47646">
        <ele>34</ele>
        <time>2022-10-27T08:29:51.602Z</time>
      </trkpt>
      <trkpt lat="48.70974" lon="2.47641">
        <ele>34</ele>
        <time>2022-10-27T08:29:56.586Z</time>
      </trkpt>
      <trkpt lat="48.70975" lon="2.47637">
        <ele>34</ele>
        <time>2022-10-27T08:30:00.604Z</time>
      </trkpt>
      <trkpt lat="48.70975" lon="2.47632">
        <ele>34</ele>
        <time>2022-10-27T08:30:05.611Z</time>
      </trkpt>
      <trkpt lat="48.70974" lon="2.47627">
        <ele>34</ele>
        <time>2022-10-27T08:30:10.606Z</time>
      </trkpt>
      <trkpt lat="48.70973" lon="2.47622">
        <ele>34</ele>
        <time>2022-10-27T08:30:15.600Z</time>
      </trkpt>
      <trkpt lat="48.70973" lon="2.47621">
        <ele>34</ele>
        <time>2022-10-27T08:30:19.610Z</time>
      </trkpt>
      <trkpt lat="48.70971" lon="2.47614">
        <ele>34</ele>
        <time>2022-10-27T08:30:24.604Z</time>
      </trkpt>
      <trkpt lat="48.70969" lon="2.47606">
        <ele>34</ele>
        <time>2022-10-27T08:30:29.601Z</time>
      </trkpt>
      <trkpt lat="48.70968" lon="2.47604">
        <ele>34</ele>
        <time>2022-10-27T08:30:34.607Z</time>
      </trkpt>
      <trkpt lat="48.70968" lon="2.476">
        <ele>34</ele>
        <time>2022-10-27T08:30:38.598Z</time>
      </trkpt>
      <trkpt lat="48.70968" lon="2.47595">
        <ele>35</ele>
        <time>2022-10-27T08:30:43.610Z</time>
      </trkpt>
      <trkpt lat="48.70966" lon="2.47592">
        <ele>35</ele>
        <time>2022-10-27T08:30:48.610Z</time>
      </trkpt>
      <trkpt lat="48.70966" lon="2.47589">
        <ele>35</ele>
        <time>2022-10-27T08:30:53.616Z</time>
      </trkpt>
      <trkpt lat="48.70965" lon="2.47585">
        <ele>35</ele>
        <time>2022-10-27T08:31:03.586Z</time>
      </trkpt>
      <trkpt lat="48.70964" lon="2.47583">
        <ele>35</ele>
        <time>2022-10-27T08:31:08.586Z</time>
      </trkpt>
      <trkpt lat="48.70963" lon="2.47578">
        <ele>35</ele>
        <time>2022-10-27T08:31:13.608Z</time>
      </trkpt>
      <trkpt lat="48.70962" lon="2.47573">
        <ele>35</ele>
        <time>2022-10-27T08:31:18.596Z</time>
      </trkpt>
      <trkpt lat="48.70961" lon="2.47568">
        <ele>35</ele>
        <time>2022-10-27T08:31:23.603Z</time>
      </trkpt>
      <trkpt lat="48.70959" lon="2.47562">
        <ele>35</ele>
        <time>2022-10-27T08:31:28.589Z</time>
      </trkpt>
      <trkpt lat="48.70955" lon="2.47559">
        <ele>37</ele>
        <time>2022-10-27T08:31:33.603Z</time>
      </trkpt>
      <trkpt lat="48.70953" lon="2.47556">
        <ele>37</ele>
        <time>2022-10-27T08:31:38.602Z</time>
      </trkpt>
      <trkpt lat="48.70951" lon="2.47554">
        <ele>37</ele>
        <time>2022-10-27T08:31:42.592Z</time>
      </trkpt>
      <trkpt lat="48.70947" lon="2.47554">
        <ele>37</ele>
        <time>2022-10-27T08:31:47.582Z</time>
      </trkpt>
      <trkpt lat="48.70945" lon="2.47552">
        <ele>37</ele>
        <time>2022-10-27T08:31:51.602Z</time>
      </trkpt>
      <trkpt lat="48.70941" lon="2.47551">
        <ele>37</ele>
        <time>2022-10-27T08:31:56.608Z</time>
      </trkpt>
      <trkpt lat="48.70941" lon="2.4755">
        <ele>37</ele>
        <time>2022-10-27T08:32:01.582Z</time>
      </trkpt>
      <trkpt lat="48.70938" lon="2.47546">
        <ele>37</ele>
        <time>2022-10-27T08:32:06.603Z</time>
      </trkpt>
      <trkpt lat="48.70936" lon="2.47544">
        <ele>37</ele>
        <time>2022-10-27T08:32:11.604Z</time>
      </trkpt>
      <trkpt lat="48.70932" lon="2.47545">
        <ele>37</ele>
        <time>2022-10-27T08:32:21.590Z</time>
      </trkpt>
      <trkpt lat="48.70932" lon="2.47548">
        <ele>37</ele>
        <time>2022-10-27T08:32:26.604Z</time>
      </trkpt>
      <trkpt lat="48.7093" lon="2.47547">
        <ele>38</ele>
        <time>2022-10-27T08:32:31.611Z</time>
      </trkpt>
      <trkpt lat="48.70926" lon="2.47543">
        <ele>38</ele>
        <time>2022-10-27T08:32:36.600Z</time>
      </trkpt>
      <trkpt lat="48.70923" lon="2.47542">
        <ele>38</ele>
        <time>2022-10-27T08:32:41.602Z</time>
      </trkpt>
      <trkpt lat="48.70921" lon="2.4754">
        <ele>38</ele>
        <time>2022-10-27T08:32:46.610Z</time>
      </trkpt>
      <trkpt lat="48.70918" lon="2.47538">
        <ele>38</ele>
        <time>2022-10-27T08:32:50.606Z</time>
      </trkpt>
      <trkpt lat="48.70914" lon="2.47536">
        <ele>38</ele>
        <time>2022-10-27T08:32:55.603Z</time>
      </trkpt>
      <trkpt lat="48.70911" lon="2.47535">
        <ele>38</ele>
        <time>2022-10-27T08:33:00.582Z</time>
      </trkpt>
      <trkpt lat="48.70909" lon="2.47534">
        <ele>38</ele>
        <time>2022-10-27T08:33:04.596Z</time>
      </trkpt>
      <trkpt lat="48.70906" lon="2.47534">
        <ele>38</ele>
        <time>2022-10-27T08:33:08.615Z</time>
      </trkpt>
      <trkpt lat="48.70903" lon="2.47537">
        <ele>38</ele>
        <time>2022-10-27T08:33:13.607Z</time>
      </trkpt>
      <trkpt lat="48.709" lon="2.4754">
        <ele>37</ele>
        <time>2022-10-27T08:33:18.594Z</time>
      </trkpt>
      <trkpt lat="48.70897" lon="2.47543">
        <ele>38</ele>
        <time>2022-10-27T08:33:23.596Z</time>
      </trkpt>
      <trkpt lat="48.70894" lon="2.47543">
        <ele>38</ele>
        <time>2022-10-27T08:33:28.599Z</time>
      </trkpt>
      <trkpt lat="48.70892" lon="2.4754">
        <ele>37</ele>
        <time>2022-10-27T08:33:33.607Z</time>
      </trkpt>
      <trkpt lat="48.7089" lon="2.47539">
        <ele>37</ele>
        <time>2022-10-27T08:33:38.598Z</time>
      </trkpt>
      <trkpt lat="48.70887" lon="2.47537">
        <ele>37</ele>
        <time>2022-10-27T08:33:43.578Z</time>
      </trkpt>
      <trkpt lat="48.70884" lon="2.47535">
        <ele>37</ele>
        <time>2022-10-27T08:33:48.581Z</time>
      </trkpt>
      <trkpt lat="48.70881" lon="2.47534">
        <ele>37</ele>
        <time>2022-10-27T08:33:52.584Z</time>
      </trkpt>
      <trkpt lat="48.70879" lon="2.47531">
        <ele>37</ele>
        <time>2022-10-27T08:33:57.574Z</time>
      </trkpt>
      <trkpt lat="48.70876" lon="2.47531">
        <ele>37</ele>
        <time>2022-10-27T08:34:01.603Z</time>
      </trkpt>
      <trkpt lat="48.7087" lon="2.47532">
        <ele>35</ele>
        <time>2022-10-27T08:34:06.608Z</time>
      </trkpt>
      <trkpt lat="48.70868" lon="2.4753">
        <ele>35</ele>
        <time>2022-10-27T08:34:11.592Z</time>
      </trkpt>
      <trkpt lat="48.70864" lon="2.4753">
        <ele>35</ele>
        <time>2022-10-27T08:34:16.599Z</time>
      </trkpt>
      <trkpt lat="48.70861" lon="2.4753">
        <ele>35</ele>
        <time>2022-10-27T08:34:21.587Z</time>
      </trkpt>
      <trkpt lat="48.70858" lon="2.47527">
        <ele>35</ele>
        <time>2022-10-27T08:34:26.593Z</time>
      </trkpt>
      <trkpt lat="48.70854" lon="2.47527">
        <ele>35</ele>
        <time>2022-10-27T08:34:31.588Z</time>
      </trkpt>
      <trkpt lat="48.7085" lon="2.47526">
        <ele>35</ele>
        <time>2022-10-27T08:34:35.603Z</time>
      </trkpt>
      <trkpt lat="48.70849" lon="2.47525">
        <ele>35</ele>
        <time>2022-10-27T08:34:39.586Z</time>
      </trkpt>
      <trkpt lat="48.70845" lon="2.47524">
        <ele>34</ele>
        <time>2022-10-27T08:34:44.606Z</time>
      </trkpt>
      <trkpt lat="48.70841" lon="2.47522">
        <ele>34</ele>
        <time>2022-10-27T08:34:49.612Z</time>
      </trkpt>
      <trkpt lat="48.70838" lon="2.47519">
        <ele>34</ele>
        <time>2022-10-27T08:34:54.581Z</time>
      </trkpt>
      <trkpt lat="48.70834" lon="2.4752">
        <ele>34</ele>
        <time>2022-10-27T08:34:59.597Z</time>
      </trkpt>
      <trkpt lat="48.70832" lon="2.47519">
        <ele>34</ele>
        <time>2022-10-27T08:35:04.606Z</time>
      </trkpt>
      <trkpt lat="48.70829" lon="2.47519">
        <ele>34</ele>
        <time>2022-10-27T08:35:09.601Z</time>
      </trkpt>
      <trkpt lat="48.70825" lon="2.47519">
        <ele>34</ele>
        <time>2022-10-27T08:35:13.599Z</time>
      </trkpt>
      <trkpt lat="48.70822" lon="2.47518">
        <ele>34</ele>
        <time>2022-10-27T08:35:18.606Z</time>
      </trkpt>
      <trkpt lat="48.7082" lon="2.47516">
        <ele>34</ele>
        <time>2022-10-27T08:35:23.599Z</time>
      </trkpt>
      <trkpt lat="48.70817" lon="2.47515">
        <ele>34</ele>
        <time>2022-10-27T08:35:28.585Z</time>
      </trkpt>
      <trkpt lat="48.70814" lon="2.47512">
        <ele>34</ele>
        <time>2022-10-27T08:35:33.588Z</time>
      </trkpt>
      <trkpt lat="48.70812" lon="2.47511">
        <ele>34</ele>
        <time>2022-10-27T08:35:37.604Z</time>
      </trkpt>
      <trkpt lat="48.7081" lon="2.47511">
        <ele>34</ele>
        <time>2022-10-27T08:35:41.743Z</time>
      </trkpt>
      <trkpt lat="48.70806" lon="2.47507">
        <ele>34</ele>
        <time>2022-10-27T08:35:46.611Z</time>
      </trkpt>
      <trkpt lat="48.70801" lon="2.47504">
        <ele>34</ele>
        <time>2022-10-27T08:35:51.724Z</time>
      </trkpt>
      <trkpt lat="48.70797" lon="2.47501">
        <ele>34</ele>
        <time>2022-10-27T08:35:56.601Z</time>
      </trkpt>
      <trkpt lat="48.70794" lon="2.475">
        <ele>34</ele>
        <time>2022-10-27T08:36:01.611Z</time>
      </trkpt>
      <trkpt lat="48.70792" lon="2.47502">
        <ele>34</ele>
        <time>2022-10-27T08:36:05.687Z</time>
      </trkpt>
      <trkpt lat="48.70787" lon="2.47507">
        <ele>34</ele>
        <time>2022-10-27T08:36:10.616Z</time>
      </trkpt>
      <trkpt lat="48.70781" lon="2.47502">
        <ele>34</ele>
        <time>2022-10-27T08:36:15.599Z</time>
      </trkpt>
      <trkpt lat="48.70777" lon="2.47498">
        <ele>34</ele>
        <time>2022-10-27T08:36:20.600Z</time>
      </trkpt>
      <trkpt lat="48.70772" lon="2.47495">
        <ele>34</ele>
        <time>2022-10-27T08:36:25.722Z</time>
      </trkpt>
      <trkpt lat="48.70768" lon="2.47496">
        <ele>34</ele>
        <time>2022-10-27T08:36:30.722Z</time>
      </trkpt>
      <trkpt lat="48.70764" lon="2.47497">
        <ele>34</ele>
        <time>2022-10-27T08:36:35.611Z</time>
      </trkpt>
      <trkpt lat="48.70759" lon="2.47498">
        <ele>34</ele>
        <time>2022-10-27T08:36:40.596Z</time>
      </trkpt>
      <trkpt lat="48.70755" lon="2.47495">
        <ele>34</ele>
        <time>2022-10-27T08:36:45.731Z</time>
      </trkpt>
      <trkpt lat="48.7075" lon="2.47494">
        <ele>34</ele>
        <time>2022-10-27T08:36:50.725Z</time>
      </trkpt>
      <trkpt lat="48.70746" lon="2.4749">
        <ele>34</ele>
        <time>2022-10-27T08:36:55.604Z</time>
      </trkpt>
      <trkpt lat="48.70741" lon="2.47488">
        <ele>34</ele>
        <time>2022-10-27T08:37:00.583Z</time>
      </trkpt>
      <trkpt lat="48.70737" lon="2.47488">
        <ele>34</ele>
        <time>2022-10-27T08:37:05.720Z</time>
      </trkpt>
      <trkpt lat="48.70734" lon="2.47487">
        <ele>34</ele>
        <time>2022-10-27T08:37:10.620Z</time>
      </trkpt>
      <trkpt lat="48.70731" lon="2.47486">
        <ele>34</ele>
        <time>2022-10-27T08:37:14.712Z</time>
      </trkpt>
      <trkpt lat="48.70728" lon="2.47484">
        <ele>34</ele>
        <time>2022-10-27T08:37:19.614Z</time>
      </trkpt>
      <trkpt lat="48.70725" lon="2.47479">
        <ele>34</ele>
        <time>2022-10-27T08:37:24.609Z</time>
      </trkpt>
      <trkpt lat="48.70716" lon="2.47474">
        <ele>34</ele>
        <time>2022-10-27T08:37:39.667Z</time>
      </trkpt>
      <trkpt lat="48.70717" lon="2.47471">
        <ele>34</ele>
        <time>2022-10-27T08:37:44.608Z</time>
      </trkpt>
      <trkpt lat="48.70716" lon="2.47469">
        <ele>34</ele>
        <time>2022-10-27T08:37:49.586Z</time>
      </trkpt>
      <trkpt lat="48.70718" lon="2.47468">
        <ele>34</ele>
        <time>2022-10-27T08:37:53.602Z</time>
      </trkpt>
      <trkpt lat="48.70717" lon="2.47466">
        <ele>34</ele>
        <time>2022-10-27T08:37:58.600Z</time>
      </trkpt>
      <trkpt lat="48.7072" lon="2.47461">
        <ele>34</ele>
        <time>2022-10-27T08:38:08.587Z</time>
      </trkpt>
      <trkpt lat="48.70721" lon="2.47454">
        <ele>35</ele>
        <time>2022-10-27T08:38:12.606Z</time>
      </trkpt>
      <trkpt lat="48.70724" lon="2.47447">
        <ele>35</ele>
        <time>2022-10-27T08:38:17.613Z</time>
      </trkpt>
      <trkpt lat="48.70724" lon="2.47438">
        <ele>35</ele>
        <time>2022-10-27T08:38:22.601Z</time>
      </trkpt>
      <trkpt lat="48.70725" lon="2.47431">
        <ele>35</ele>
        <time>2022-10-27T08:38:27.612Z</time>
      </trkpt>
      <trkpt lat="48.70725" lon="2.47422">
        <ele>35</ele>
        <time>2022-10-27T08:38:32.609Z</time>
      </trkpt>
      <trkpt lat="48.70726" lon="2.47416">
        <ele>35</ele>
        <time>2022-10-27T08:38:36.719Z</time>
      </trkpt>
      <trkpt lat="48.70726" lon="2.4741">
        <ele>35</ele>
        <time>2022-10-27T08:38:41.600Z</time>
      </trkpt>
      <trkpt lat="48.70725" lon="2.47402">
        <ele>36</ele>
        <time>2022-10-27T08:38:46.722Z</time>
      </trkpt>
      <trkpt lat="48.70725" lon="2.47397">
        <ele>36</ele>
        <time>2022-10-27T08:38:51.606Z</time>
      </trkpt>
      <trkpt lat="48.70727" lon="2.4739">
        <ele>36</ele>
        <time>2022-10-27T08:38:56.599Z</time>
      </trkpt>
      <trkpt lat="48.70725" lon="2.47385">
        <ele>36</ele>
        <time>2022-10-27T08:39:01.610Z</time>
      </trkpt>
      <trkpt lat="48.70725" lon="2.47379">
        <ele>36</ele>
        <time>2022-10-27T08:39:06.610Z</time>
      </trkpt>
      <trkpt lat="48.70725" lon="2.47378">
        <ele>36</ele>
        <time>2022-10-27T08:39:11.608Z</time>
      </trkpt>
      <trkpt lat="48.70725" lon="2.4737">
        <ele>36</ele>
        <time>2022-10-27T08:39:16.608Z</time>
      </trkpt>
      <trkpt lat="48.70725" lon="2.47366">
        <ele>36</ele>
        <time>2022-10-27T08:39:20.718Z</time>
      </trkpt>
      <trkpt lat="48.70724" lon="2.47361">
        <ele>36</ele>
        <time>2022-10-27T08:39:25.608Z</time>
      </trkpt>
      <trkpt lat="48.70723" lon="2.47353">
        <ele>36</ele>
        <time>2022-10-27T08:39:30.713Z</time>
      </trkpt>
      <trkpt lat="48.70724" lon="2.47348">
        <ele>36</ele>
        <time>2022-10-27T08:39:35.719Z</time>
      </trkpt>
      <trkpt lat="48.70723" lon="2.47342">
        <ele>37</ele>
        <time>2022-10-27T08:39:40.725Z</time>
      </trkpt>
      <trkpt lat="48.70724" lon="2.47336">
        <ele>37</ele>
        <time>2022-10-27T08:39:45.728Z</time>
      </trkpt>
      <trkpt lat="48.70726" lon="2.47331">
        <ele>37</ele>
        <time>2022-10-27T08:39:50.600Z</time>
      </trkpt>
      <trkpt lat="48.70727" lon="2.47327">
        <ele>37</ele>
        <time>2022-10-27T08:39:54.593Z</time>
      </trkpt>
      <trkpt lat="48.70732" lon="2.47323">
        <ele>37</ele>
        <time>2022-10-27T08:39:59.615Z</time>
      </trkpt>
      <trkpt lat="48.70734" lon="2.47321">
        <ele>37</ele>
        <time>2022-10-27T08:40:04.605Z</time>
      </trkpt>
      <trkpt lat="48.70735" lon="2.47319">
        <ele>37</ele>
        <time>2022-10-27T08:40:09.597Z</time>
      </trkpt>
      <trkpt lat="48.70737" lon="2.47321">
        <ele>35</ele>
        <time>2022-10-27T08:40:14.613Z</time>
      </trkpt>
      <trkpt lat="48.70741" lon="2.47319">
        <ele>35</ele>
        <time>2022-10-27T08:40:19.604Z</time>
      </trkpt>
      <trkpt lat="48.70745" lon="2.47318">
        <ele>35</ele>
        <time>2022-10-27T08:40:24.586Z</time>
      </trkpt>
      <trkpt lat="48.7075" lon="2.47316">
        <ele>35</ele>
        <time>2022-10-27T08:40:29.588Z</time>
      </trkpt>
      <trkpt lat="48.70752" lon="2.47315">
        <ele>35</ele>
        <time>2022-10-27T08:40:34.582Z</time>
      </trkpt>
      <trkpt lat="48.70756" lon="2.47311">
        <ele>35</ele>
        <time>2022-10-27T08:40:39.596Z</time>
      </trkpt>
      <trkpt lat="48.7076" lon="2.47309">
        <ele>35</ele>
        <time>2022-10-27T08:40:44.583Z</time>
      </trkpt>
      <trkpt lat="48.70764" lon="2.47305">
        <ele>35</ele>
        <time>2022-10-27T08:40:48.605Z</time>
      </trkpt>
      <trkpt lat="48.70767" lon="2.47302">
        <ele>34</ele>
        <time>2022-10-27T08:40:53.592Z</time>
      </trkpt>
      <trkpt lat="48.70771" lon="2.473">
        <ele>34</ele>
        <time>2022-10-27T08:40:58.584Z</time>
      </trkpt>
      <trkpt lat="48.70774" lon="2.47298">
        <ele>34</ele>
        <time>2022-10-27T08:41:02.591Z</time>
      </trkpt>
      <trkpt lat="48.70778" lon="2.47295">
        <ele>34</ele>
        <time>2022-10-27T08:41:07.614Z</time>
      </trkpt>
      <trkpt lat="48.70781" lon="2.47292">
        <ele>34</ele>
        <time>2022-10-27T08:41:12.583Z</time>
      </trkpt>
      <trkpt lat="48.70783" lon="2.47291">
        <ele>34</ele>
        <time>2022-10-27T08:41:16.612Z</time>
      </trkpt>
      <trkpt lat="48.70787" lon="2.4729">
        <ele>34</ele>
        <time>2022-10-27T08:41:21.587Z</time>
      </trkpt>
      <trkpt lat="48.70791" lon="2.4729">
        <ele>34</ele>
        <time>2022-10-27T08:41:25.619Z</time>
      </trkpt>
      <trkpt lat="48.70794" lon="2.47288">
        <ele>35</ele>
        <time>2022-10-27T08:41:30.611Z</time>
      </trkpt>
      <trkpt lat="48.70796" lon="2.47287">
        <ele>35</ele>
        <time>2022-10-27T08:41:35.618Z</time>
      </trkpt>
      <trkpt lat="48.708" lon="2.47286">
        <ele>35</ele>
        <time>2022-10-27T08:41:40.583Z</time>
      </trkpt>
      <trkpt lat="48.70804" lon="2.47284">
        <ele>35</ele>
        <time>2022-10-27T08:41:44.607Z</time>
      </trkpt>
      <trkpt lat="48.70808" lon="2.47284">
        <ele>35</ele>
        <time>2022-10-27T08:41:49.598Z</time>
      </trkpt>
      <trkpt lat="48.70811" lon="2.47284">
        <ele>35</ele>
        <time>2022-10-27T08:41:53.615Z</time>
      </trkpt>
      <trkpt lat="48.70814" lon="2.47283">
        <ele>35</ele>
        <time>2022-10-27T08:41:58.603Z</time>
      </trkpt>
      <trkpt lat="48.70818" lon="2.47282">
        <ele>35</ele>
        <time>2022-10-27T08:42:03.604Z</time>
      </trkpt>
      <trkpt lat="48.7082" lon="2.47281">
        <ele>35</ele>
        <time>2022-10-27T08:42:08.603Z</time>
      </trkpt>
      <trkpt lat="48.70823" lon="2.47281">
        <ele>35</ele>
        <time>2022-10-27T08:42:13.601Z</time>
      </trkpt>
      <trkpt lat="48.70826" lon="2.4728">
        <ele>35</ele>
        <time>2022-10-27T08:42:18.603Z</time>
      </trkpt>
      <trkpt lat="48.70829" lon="2.4728">
        <ele>35</ele>
        <time>2022-10-27T08:42:23.606Z</time>
      </trkpt>
      <trkpt lat="48.70831" lon="2.47278">
        <ele>35</ele>
        <time>2022-10-27T08:42:28.608Z</time>
      </trkpt>
      <trkpt lat="48.70834" lon="2.47277">
        <ele>35</ele>
        <time>2022-10-27T08:42:33.603Z</time>
      </trkpt>
      <trkpt lat="48.70837" lon="2.47274">
        <ele>35</ele>
        <time>2022-10-27T08:42:38.600Z</time>
      </trkpt>
      <trkpt lat="48.7084" lon="2.47273">
        <ele>35</ele>
        <time>2022-10-27T08:42:43.605Z</time>
      </trkpt>
      <trkpt lat="48.70845" lon="2.47272">
        <ele>35</ele>
        <time>2022-10-27T08:42:48.606Z</time>
      </trkpt>
      <trkpt lat="48.70847" lon="2.47271">
        <ele>34</ele>
        <time>2022-10-27T08:42:53.614Z</time>
      </trkpt>
      <trkpt lat="48.7085" lon="2.47268">
        <ele>34</ele>
        <time>2022-10-27T08:42:58.605Z</time>
      </trkpt>
      <trkpt lat="48.70852" lon="2.47263">
        <ele>35</ele>
        <time>2022-10-27T08:43:03.611Z</time>
      </trkpt>
      <trkpt lat="48.70856" lon="2.47258">
        <ele>35</ele>
        <time>2022-10-27T08:43:08.611Z</time>
      </trkpt>
      <trkpt lat="48.70859" lon="2.4725">
        <ele>35</ele>
        <time>2022-10-27T08:43:13.606Z</time>
      </trkpt>
      <trkpt lat="48.70861" lon="2.47244">
        <ele>35</ele>
        <time>2022-10-27T08:43:18.601Z</time>
      </trkpt>
      <trkpt lat="48.70863" lon="2.47239">
        <ele>35</ele>
        <time>2022-10-27T08:43:22.614Z</time>
      </trkpt>
      <trkpt lat="48.70866" lon="2.47233">
        <ele>36</ele>
        <time>2022-10-27T08:43:27.604Z</time>
      </trkpt>
      <trkpt lat="48.70867" lon="2.47228">
        <ele>36</ele>
        <time>2022-10-27T08:43:32.609Z</time>
      </trkpt>
      <trkpt lat="48.70867" lon="2.47222">
        <ele>36</ele>
        <time>2022-10-27T08:43:37.605Z</time>
      </trkpt>
      <trkpt lat="48.70868" lon="2.47218">
        <ele>36</ele>
        <time>2022-10-27T08:43:42.602Z</time>
      </trkpt>
      <trkpt lat="48.70871" lon="2.47214">
        <ele>36</ele>
        <time>2022-10-27T08:43:47.600Z</time>
      </trkpt>
      <trkpt lat="48.70871" lon="2.47212">
        <ele>36</ele>
        <time>2022-10-27T08:43:52.607Z</time>
      </trkpt>
      <trkpt lat="48.70873" lon="2.47208">
        <ele>37</ele>
        <time>2022-10-27T08:43:57.604Z</time>
      </trkpt>
      <trkpt lat="48.70873" lon="2.47204">
        <ele>37</ele>
        <time>2022-10-27T08:44:02.602Z</time>
      </trkpt>
      <trkpt lat="48.70874" lon="2.472">
        <ele>37</ele>
        <time>2022-10-27T08:44:07.607Z</time>
      </trkpt>
      <trkpt lat="48.70876" lon="2.47191">
        <ele>38</ele>
        <time>2022-10-27T08:44:16.608Z</time>
      </trkpt>
      <trkpt lat="48.70875" lon="2.47191">
        <ele>37</ele>
        <time>2022-10-27T08:44:21.603Z</time>
      </trkpt>
      <trkpt lat="48.70875" lon="2.47187">
        <ele>38</ele>
        <time>2022-10-27T08:44:26.606Z</time>
      </trkpt>
      <trkpt lat="48.70875" lon="2.47185">
        <ele>37</ele>
        <time>2022-10-27T08:44:31.611Z</time>
      </trkpt>
      <trkpt lat="48.70878" lon="2.47181">
        <ele>38</ele>
        <time>2022-10-27T08:44:36.582Z</time>
      </trkpt>
      <trkpt lat="48.70879" lon="2.47179">
        <ele>38</ele>
        <time>2022-10-27T08:44:41.604Z</time>
      </trkpt>
      <trkpt lat="48.70882" lon="2.47175">
        <ele>38</ele>
        <time>2022-10-27T08:44:46.602Z</time>
      </trkpt>
      <trkpt lat="48.70884" lon="2.4717">
        <ele>38</ele>
        <time>2022-10-27T08:44:51.580Z</time>
      </trkpt>
      <trkpt lat="48.70884" lon="2.47163">
        <ele>38</ele>
        <time>2022-10-27T08:44:55.599Z</time>
      </trkpt>
      <trkpt lat="48.70884" lon="2.47156">
        <ele>38</ele>
        <time>2022-10-27T08:45:00.599Z</time>
      </trkpt>
      <trkpt lat="48.70886" lon="2.47151">
        <ele>38</ele>
        <time>2022-10-27T08:45:04.605Z</time>
      </trkpt>
      <trkpt lat="48.70887" lon="2.47148">
        <ele>38</ele>
        <time>2022-10-27T08:45:09.607Z</time>
      </trkpt>
      <trkpt lat="48.70888" lon="2.47144">
        <ele>38</ele>
        <time>2022-10-27T08:45:14.604Z</time>
      </trkpt>
      <trkpt lat="48.70887" lon="2.4714">
        <ele>38</ele>
        <time>2022-10-27T08:45:18.608Z</time>
      </trkpt>
      <trkpt lat="48.70889" lon="2.47135">
        <ele>38</ele>
        <time>2022-10-27T08:45:23.608Z</time>
      </trkpt>
      <trkpt lat="48.70889" lon="2.47134">
        <ele>38</ele>
        <time>2022-10-27T08:45:28.603Z</time>
      </trkpt>
      <trkpt lat="48.7089" lon="2.47129">
        <ele>38</ele>
        <time>2022-10-27T08:45:33.603Z</time>
      </trkpt>
      <trkpt lat="48.70893" lon="2.47127">
        <ele>38</ele>
        <time>2022-10-27T08:45:38.598Z</time>
      </trkpt>
      <trkpt lat="48.70894" lon="2.47126">
        <ele>38</ele>
        <time>2022-10-27T08:45:42.608Z</time>
      </trkpt>
      <trkpt lat="48.70899" lon="2.47124">
        <ele>37</ele>
        <time>2022-10-27T08:45:47.595Z</time>
      </trkpt>
      <trkpt lat="48.70902" lon="2.4712">
        <ele>37</ele>
        <time>2022-10-27T08:45:51.610Z</time>
      </trkpt>
      <trkpt lat="48.70905" lon="2.47116">
        <ele>37</ele>
        <time>2022-10-27T08:45:56.601Z</time>
      </trkpt>
      <trkpt lat="48.70907" lon="2.47109">
        <ele>37</ele>
        <time>2022-10-27T08:46:00.604Z</time>
      </trkpt>
      <trkpt lat="48.7091" lon="2.47107">
        <ele>37</ele>
        <time>2022-10-27T08:46:05.608Z</time>
      </trkpt>
      <trkpt lat="48.70914" lon="2.47103">
        <ele>37</ele>
        <time>2022-10-27T08:46:10.585Z</time>
      </trkpt>
      <trkpt lat="48.70918" lon="2.47098">
        <ele>37</ele>
        <time>2022-10-27T08:46:15.600Z</time>
      </trkpt>
      <trkpt lat="48.70922" lon="2.47097">
        <ele>36</ele>
        <time>2022-10-27T08:46:20.607Z</time>
      </trkpt>
      <trkpt lat="48.70925" lon="2.47096">
        <ele>36</ele>
        <time>2022-10-27T08:46:25.607Z</time>
      </trkpt>
      <trkpt lat="48.70928" lon="2.47092">
        <ele>36</ele>
        <time>2022-10-27T08:46:30.603Z</time>
      </trkpt>
      <trkpt lat="48.70929" lon="2.47091">
        <ele>36</ele>
        <time>2022-10-27T08:46:35.606Z</time>
      </trkpt>
      <trkpt lat="48.70932" lon="2.47089">
        <ele>34</ele>
        <time>2022-10-27T08:46:40.593Z</time>
      </trkpt>
      <trkpt lat="48.70936" lon="2.47086">
        <ele>34</ele>
        <time>2022-10-27T08:46:44.604Z</time>
      </trkpt>
      <trkpt lat="48.70938" lon="2.47083">
        <ele>34</ele>
        <time>2022-10-27T08:46:49.597Z</time>
      </trkpt>
      <trkpt lat="48.70942" lon="2.47079">
        <ele>34</ele>
        <time>2022-10-27T08:46:54.603Z</time>
      </trkpt>
      <trkpt lat="48.70943" lon="2.47078">
        <ele>34</ele>
        <time>2022-10-27T08:46:59.607Z</time>
      </trkpt>
      <trkpt lat="48.70945" lon="2.47076">
        <ele>34</ele>
        <time>2022-10-27T08:47:04.607Z</time>
      </trkpt>
      <trkpt lat="48.70947" lon="2.47076">
        <ele>34</ele>
        <time>2022-10-27T08:47:09.601Z</time>
      </trkpt>
      <trkpt lat="48.70949" lon="2.47074">
        <ele>34</ele>
        <time>2022-10-27T08:47:14.599Z</time>
      </trkpt>
      <trkpt lat="48.70952" lon="2.47071">
        <ele>34</ele>
        <time>2022-10-27T08:47:19.604Z</time>
      </trkpt>
      <trkpt lat="48.70954" lon="2.47068">
        <ele>33</ele>
        <time>2022-10-27T08:47:24.599Z</time>
      </trkpt>
      <trkpt lat="48.70957" lon="2.47066">
        <ele>33</ele>
        <time>2022-10-27T08:47:29.607Z</time>
      </trkpt>
      <trkpt lat="48.7096" lon="2.47064">
        <ele>34</ele>
        <time>2022-10-27T08:47:34.600Z</time>
      </trkpt>
      <trkpt lat="48.70964" lon="2.4706">
        <ele>34</ele>
        <time>2022-10-27T08:47:39.606Z</time>
      </trkpt>
      <trkpt lat="48.70967" lon="2.47057">
        <ele>34</ele>
        <time>2022-10-27T08:47:44.605Z</time>
      </trkpt>
      <trkpt lat="48.70969" lon="2.47054">
        <ele>34</ele>
        <time>2022-10-27T08:47:49.603Z</time>
      </trkpt>
      <trkpt lat="48.70972" lon="2.47052">
        <ele>34</ele>
        <time>2022-10-27T08:47:54.607Z</time>
      </trkpt>
      <trkpt lat="48.70976" lon="2.4705">
        <ele>34</ele>
        <time>2022-10-27T08:47:59.609Z</time>
      </trkpt>
      <trkpt lat="48.7098" lon="2.4705">
        <ele>34</ele>
        <time>2022-10-27T08:48:04.600Z</time>
      </trkpt>
      <trkpt lat="48.70983" lon="2.47048">
        <ele>34</ele>
        <time>2022-10-27T08:48:09.612Z</time>
      </trkpt>
      <trkpt lat="48.70985" lon="2.47044">
        <ele>34</ele>
        <time>2022-10-27T08:48:14.620Z</time>
      </trkpt>
      <trkpt lat="48.70989" lon="2.47041">
        <ele>34</ele>
        <time>2022-10-27T08:48:19.605Z</time>
      </trkpt>
      <trkpt lat="48.7099" lon="2.47038">
        <ele>34</ele>
        <time>2022-10-27T08:48:24.614Z</time>
      </trkpt>
      <trkpt lat="48.70993" lon="2.47035">
        <ele>34</ele>
        <time>2022-10-27T08:48:29.662Z</time>
      </trkpt>
      <trkpt lat="48.70995" lon="2.47031">
        <ele>34</ele>
        <time>2022-10-27T08:48:34.602Z</time>
      </trkpt>
      <trkpt lat="48.70997" lon="2.47028">
        <ele>34</ele>
        <time>2022-10-27T08:48:39.609Z</time>
      </trkpt>
      <trkpt lat="48.70999" lon="2.47023">
        <ele>34</ele>
        <time>2022-10-27T08:48:44.608Z</time>
      </trkpt>
      <trkpt lat="48.71001" lon="2.47018">
        <ele>34</ele>
        <time>2022-10-27T08:48:49.595Z</time>
      </trkpt>
      <trkpt lat="48.71002" lon="2.47015">
        <ele>34</ele>
        <time>2022-10-27T08:48:54.616Z</time>
      </trkpt>
      <trkpt lat="48.71004" lon="2.4701">
        <ele>33</ele>
        <time>2022-10-27T08:48:59.610Z</time>
      </trkpt>
      <trkpt lat="48.71008" lon="2.47004">
        <ele>33</ele>
        <time>2022-10-27T08:49:04.587Z</time>
      </trkpt>
      <trkpt lat="48.71007" lon="2.47">
        <ele>33</ele>
        <time>2022-10-27T08:49:08.613Z</time>
      </trkpt>
      <trkpt lat="48.71009" lon="2.46998">
        <ele>33</ele>
        <time>2022-10-27T08:49:12.717Z</time>
      </trkpt>
      <trkpt lat="48.71011" lon="2.46994">
        <ele>33</ele>
        <time>2022-10-27T08:49:17.715Z</time>
      </trkpt>
      <trkpt lat="48.71014" lon="2.4699">
        <ele>33</ele>
        <time>2022-10-27T08:49:22.615Z</time>
      </trkpt>
      <trkpt lat="48.71016" lon="2.46982">
        <ele>32</ele>
        <time>2022-10-27T08:49:41.740Z</time>
      </trkpt>
      <trkpt lat="48.71017" lon="2.4698">
        <ele>32</ele>
        <time>2022-10-27T08:49:46.734Z</time>
      </trkpt>
      <trkpt lat="48.71019" lon="2.46975">
        <ele>32</ele>
        <time>2022-10-27T08:49:51.613Z</time>
      </trkpt>
      <trkpt lat="48.71022" lon="2.4697">
        <ele>32</ele>
        <time>2022-10-27T08:49:56.601Z</time>
      </trkpt>
      <trkpt lat="48.71022" lon="2.46966">
        <ele>32</ele>
        <time>2022-10-27T08:50:01.628Z</time>
      </trkpt>
      <trkpt lat="48.71025" lon="2.46961">
        <ele>32</ele>
        <time>2022-10-27T08:50:06.604Z</time>
      </trkpt>
      <trkpt lat="48.71028" lon="2.46958">
        <ele>32</ele>
        <time>2022-10-27T08:50:10.716Z</time>
      </trkpt>
      <trkpt lat="48.71031" lon="2.46953">
        <ele>32</ele>
        <time>2022-10-27T08:50:15.716Z</time>
      </trkpt>
      <trkpt lat="48.71033" lon="2.46951">
        <ele>32</ele>
        <time>2022-10-27T08:50:20.658Z</time>
      </trkpt>
      <trkpt lat="48.71036" lon="2.46946">
        <ele>32</ele>
        <time>2022-10-27T08:50:25.617Z</time>
      </trkpt>
      <trkpt lat="48.71037" lon="2.46943">
        <ele>32</ele>
        <time>2022-10-27T08:50:29.616Z</time>
      </trkpt>
      <trkpt lat="48.7104" lon="2.46935">
        <ele>32</ele>
        <time>2022-10-27T08:50:34.617Z</time>
      </trkpt>
      <trkpt lat="48.71043" lon="2.46929">
        <ele>32</ele>
        <time>2022-10-27T08:50:39.610Z</time>
      </trkpt>
      <trkpt lat="48.71046" lon="2.46928">
        <ele>32</ele>
        <time>2022-10-27T08:50:43.617Z</time>
      </trkpt>
      <trkpt lat="48.71047" lon="2.46925">
        <ele>32</ele>
        <time>2022-10-27T08:50:48.619Z</time>
      </trkpt>
      <trkpt lat="48.7105" lon="2.4692">
        <ele>32</ele>
        <time>2022-10-27T08:50:53.619Z</time>
      </trkpt>
      <trkpt lat="48.71051" lon="2.46917">
        <ele>32</ele>
        <time>2022-10-27T08:50:58.600Z</time>
      </trkpt>
      <trkpt lat="48.71053" lon="2.46914">
        <ele>32</ele>
        <time>2022-10-27T08:51:02.621Z</time>
      </trkpt>
      <trkpt lat="48.71057" lon="2.46907">
        <ele>32</ele>
        <time>2022-10-27T08:51:07.601Z</time>
      </trkpt>
      <trkpt lat="48.71059" lon="2.46903">
        <ele>32</ele>
        <time>2022-10-27T08:51:11.592Z</time>
      </trkpt>
      <trkpt lat="48.7106" lon="2.46898">
        <ele>30</ele>
        <time>2022-10-27T08:51:15.590Z</time>
      </trkpt>
      <trkpt lat="48.71063" lon="2.46893">
        <ele>30</ele>
        <time>2022-10-27T08:51:20.595Z</time>
      </trkpt>
      <trkpt lat="48.71065" lon="2.46889">
        <ele>30</ele>
        <time>2022-10-27T08:51:25.592Z</time>
      </trkpt>
      <trkpt lat="48.71067" lon="2.46884">
        <ele>30</ele>
        <time>2022-10-27T08:51:29.609Z</time>
      </trkpt>
      <trkpt lat="48.71069" lon="2.46881">
        <ele>30</ele>
        <time>2022-10-27T08:51:34.609Z</time>
      </trkpt>
      <trkpt lat="48.71072" lon="2.46876">
        <ele>31</ele>
        <time>2022-10-27T08:51:39.612Z</time>
      </trkpt>
      <trkpt lat="48.71075" lon="2.46871">
        <ele>30</ele>
        <time>2022-10-27T08:51:44.609Z</time>
      </trkpt>
      <trkpt lat="48.71077" lon="2.46867">
        <ele>30</ele>
        <time>2022-10-27T08:51:49.621Z</time>
      </trkpt>
      <trkpt lat="48.71079" lon="2.46862">
        <ele>30</ele>
        <time>2022-10-27T08:51:53.618Z</time>
      </trkpt>
      <trkpt lat="48.71081" lon="2.46858">
        <ele>30</ele>
        <time>2022-10-27T08:51:58.620Z</time>
      </trkpt>
      <trkpt lat="48.71084" lon="2.46855">
        <ele>30</ele>
        <time>2022-10-27T08:52:03.618Z</time>
      </trkpt>
      <trkpt lat="48.71087" lon="2.46851">
        <ele>30</ele>
        <time>2022-10-27T08:52:08.588Z</time>
      </trkpt>
      <trkpt lat="48.71088" lon="2.46849">
        <ele>30</ele>
        <time>2022-10-27T08:52:12.606Z</time>
      </trkpt>
      <trkpt lat="48.7109" lon="2.46845">
        <ele>30</ele>
        <time>2022-10-27T08:52:17.611Z</time>
      </trkpt>
      <trkpt lat="48.71093" lon="2.46841">
        <ele>30</ele>
        <time>2022-10-27T08:52:41.588Z</time>
      </trkpt>
      <trkpt lat="48.71095" lon="2.46836">
        <ele>30</ele>
        <time>2022-10-27T08:52:46.619Z</time>
      </trkpt>
      <trkpt lat="48.71096" lon="2.46834">
        <ele>30</ele>
        <time>2022-10-27T08:52:51.755Z</time>
      </trkpt>
      <trkpt lat="48.711" lon="2.46831">
        <ele>30</ele>
        <time>2022-10-27T08:52:56.753Z</time>
      </trkpt>
      <trkpt lat="48.71104" lon="2.4683">
        <ele>30</ele>
        <time>2022-10-27T08:53:01.592Z</time>
      </trkpt>
      <trkpt lat="48.71106" lon="2.46832">
        <ele>30</ele>
        <time>2022-10-27T08:53:06.608Z</time>
      </trkpt>
      <trkpt lat="48.71107" lon="2.46835">
        <ele>30</ele>
        <time>2022-10-27T08:53:10.608Z</time>
      </trkpt>
      <trkpt lat="48.7111" lon="2.4684">
        <ele>30</ele>
        <time>2022-10-27T08:53:15.613Z</time>
      </trkpt>
      <trkpt lat="48.71114" lon="2.46846">
        <ele>30</ele>
        <time>2022-10-27T08:53:20.620Z</time>
      </trkpt>
      <trkpt lat="48.71117" lon="2.46848">
        <ele>30</ele>
        <time>2022-10-27T08:53:25.602Z</time>
      </trkpt>
      <trkpt lat="48.71121" lon="2.46849">
        <ele>30</ele>
        <time>2022-10-27T08:53:29.615Z</time>
      </trkpt>
      <trkpt lat="48.71125" lon="2.46853">
        <ele>31</ele>
        <time>2022-10-27T08:53:34.602Z</time>
      </trkpt>
      <trkpt lat="48.71126" lon="2.46859">
        <ele>31</ele>
        <time>2022-10-27T08:53:39.603Z</time>
      </trkpt>
      <trkpt lat="48.71129" lon="2.46863">
        <ele>31</ele>
        <time>2022-10-27T08:53:44.614Z</time>
      </trkpt>
      <trkpt lat="48.71133" lon="2.46867">
        <ele>31</ele>
        <time>2022-10-27T08:53:49.595Z</time>
      </trkpt>
      <trkpt lat="48.71136" lon="2.46871">
        <ele>31</ele>
        <time>2022-10-27T08:53:54.613Z</time>
      </trkpt>
      <trkpt lat="48.71138" lon="2.46874">
        <ele>31</ele>
        <time>2022-10-27T08:53:58.640Z</time>
      </trkpt>
      <trkpt lat="48.71142" lon="2.46878">
        <ele>32</ele>
        <time>2022-10-27T08:54:03.587Z</time>
      </trkpt>
      <trkpt lat="48.71145" lon="2.46881">
        <ele>32</ele>
        <time>2022-10-27T08:54:08.603Z</time>
      </trkpt>
      <trkpt lat="48.71149" lon="2.46885">
        <ele>32</ele>
        <time>2022-10-27T08:54:13.589Z</time>
      </trkpt>
      <trkpt lat="48.71154" lon="2.46888">
        <ele>34</ele>
        <time>2022-10-27T08:54:18.594Z</time>
      </trkpt>
      <trkpt lat="48.71156" lon="2.46888">
        <ele>34</ele>
        <time>2022-10-27T08:54:22.604Z</time>
      </trkpt>
      <trkpt lat="48.7116" lon="2.46887">
        <ele>34</ele>
        <time>2022-10-27T08:54:27.617Z</time>
      </trkpt>
      <trkpt lat="48.71163" lon="2.46891">
        <ele>34</ele>
        <time>2022-10-27T08:54:32.597Z</time>
      </trkpt>
      <trkpt lat="48.71165" lon="2.46894">
        <ele>34</ele>
        <time>2022-10-27T08:54:37.588Z</time>
      </trkpt>
      <trkpt lat="48.71167" lon="2.46896">
        <ele>34</ele>
        <time>2022-10-27T08:54:41.615Z</time>
      </trkpt>
      <trkpt lat="48.71172" lon="2.46897">
        <ele>34</ele>
        <time>2022-10-27T08:54:46.599Z</time>
      </trkpt>
      <trkpt lat="48.71177" lon="2.469">
        <ele>34</ele>
        <time>2022-10-27T08:54:51.597Z</time>
      </trkpt>
      <trkpt lat="48.7118" lon="2.469">
        <ele>34</ele>
        <time>2022-10-27T08:54:55.603Z</time>
      </trkpt>
      <trkpt lat="48.71182" lon="2.46901">
        <ele>34</ele>
        <time>2022-10-27T08:54:59.607Z</time>
      </trkpt>
      <trkpt lat="48.71188" lon="2.46904">
        <ele>35</ele>
        <time>2022-10-27T08:55:04.594Z</time>
      </trkpt>
      <trkpt lat="48.7119" lon="2.4691">
        <ele>35</ele>
        <time>2022-10-27T08:55:09.598Z</time>
      </trkpt>
      <trkpt lat="48.7119" lon="2.46912">
        <ele>35</ele>
        <time>2022-10-27T08:55:14.593Z</time>
      </trkpt>
      <trkpt lat="48.71191" lon="2.46916">
        <ele>35</ele>
        <time>2022-10-27T08:55:17.595Z</time>
      </trkpt>
      <trkpt lat="48.71195" lon="2.4692">
        <ele>35</ele>
        <time>2022-10-27T08:55:23.590Z</time>
      </trkpt>
      <trkpt lat="48.71199" lon="2.46924">
        <ele>35</ele>
        <time>2022-10-27T08:55:28.602Z</time>
      </trkpt>
      <trkpt lat="48.71202" lon="2.46927">
        <ele>35</ele>
        <time>2022-10-27T08:55:33.604Z</time>
      </trkpt>
      <trkpt lat="48.71203" lon="2.46929">
        <ele>35</ele>
        <time>2022-10-27T08:55:38.620Z</time>
      </trkpt>
      <trkpt lat="48.71206" lon="2.46933">
        <ele>35</ele>
        <time>2022-10-27T08:55:43.618Z</time>
      </trkpt>
      <trkpt lat="48.71212" lon="2.46939">
        <ele>36</ele>
        <time>2022-10-27T08:55:48.607Z</time>
      </trkpt>
      <trkpt lat="48.71216" lon="2.46943">
        <ele>36</ele>
        <time>2022-10-27T08:55:53.614Z</time>
      </trkpt>
      <trkpt lat="48.7122" lon="2.46947">
        <ele>36</ele>
        <time>2022-10-27T08:55:58.595Z</time>
      </trkpt>
      <trkpt lat="48.71222" lon="2.46951">
        <ele>36</ele>
        <time>2022-10-27T08:56:02.610Z</time>
      </trkpt>
      <trkpt lat="48.71225" lon="2.46955">
        <ele>36</ele>
        <time>2022-10-27T08:56:07.623Z</time>
      </trkpt>
      <trkpt lat="48.71228" lon="2.46958">
        <ele>36</ele>
        <time>2022-10-27T08:56:11.620Z</time>
      </trkpt>
      <trkpt lat="48.71229" lon="2.4696">
        <ele>35</ele>
        <time>2022-10-27T08:56:16.610Z</time>
      </trkpt>
      <trkpt lat="48.7123" lon="2.46963">
        <ele>35</ele>
        <time>2022-10-27T08:56:21.615Z</time>
      </trkpt>
      <trkpt lat="48.71232" lon="2.46967">
        <ele>35</ele>
        <time>2022-10-27T08:56:26.608Z</time>
      </trkpt>
      <trkpt lat="48.71234" lon="2.46974">
        <ele>35</ele>
        <time>2022-10-27T08:56:31.618Z</time>
      </trkpt>
      <trkpt lat="48.71236" lon="2.46979">
        <ele>35</ele>
        <time>2022-10-27T08:56:36.622Z</time>
      </trkpt>
      <trkpt lat="48.71238" lon="2.46985">
        <ele>36</ele>
        <time>2022-10-27T08:56:41.619Z</time>
      </trkpt>
      <trkpt lat="48.71239" lon="2.46992">
        <ele>36</ele>
        <time>2022-10-27T08:56:46.609Z</time>
      </trkpt>
      <trkpt lat="48.7124" lon="2.46998">
        <ele>36</ele>
        <time>2022-10-27T08:56:51.600Z</time>
      </trkpt>
      <trkpt lat="48.71242" lon="2.47004">
        <ele>36</ele>
        <time>2022-10-27T08:56:56.613Z</time>
      </trkpt>
      <trkpt lat="48.71244" lon="2.47009">
        <ele>36</ele>
        <time>2022-10-27T08:57:01.587Z</time>
      </trkpt>
      <trkpt lat="48.71246" lon="2.47013">
        <ele>36</ele>
        <time>2022-10-27T08:57:05.593Z</time>
      </trkpt>
      <trkpt lat="48.71248" lon="2.47019">
        <ele>36</ele>
        <time>2022-10-27T08:57:10.602Z</time>
      </trkpt>
      <trkpt lat="48.71249" lon="2.47021">
        <ele>36</ele>
        <time>2022-10-27T08:57:15.602Z</time>
      </trkpt>
      <trkpt lat="48.71252" lon="2.47024">
        <ele>36</ele>
        <time>2022-10-27T08:57:19.621Z</time>
      </trkpt>
      <trkpt lat="48.71256" lon="2.47029">
        <ele>36</ele>
        <time>2022-10-27T08:57:24.602Z</time>
      </trkpt>
      <trkpt lat="48.71258" lon="2.47034">
        <ele>36</ele>
        <time>2022-10-27T08:57:28.614Z</time>
      </trkpt>
      <trkpt lat="48.7126" lon="2.4704">
        <ele>36</ele>
        <time>2022-10-27T08:57:33.594Z</time>
      </trkpt>
      <trkpt lat="48.71261" lon="2.47043">
        <ele>36</ele>
        <time>2022-10-27T08:57:37.606Z</time>
      </trkpt>
      <trkpt lat="48.71263" lon="2.47051">
        <ele>36</ele>
        <time>2022-10-27T08:57:42.592Z</time>
      </trkpt>
      <trkpt lat="48.71265" lon="2.47057">
        <ele>37</ele>
        <time>2022-10-27T08:57:47.619Z</time>
      </trkpt>
      <trkpt lat="48.71267" lon="2.47065">
        <ele>37</ele>
        <time>2022-10-27T08:57:52.592Z</time>
      </trkpt>
      <trkpt lat="48.71268" lon="2.4707">
        <ele>37</ele>
        <time>2022-10-27T08:57:57.609Z</time>
      </trkpt>
      <trkpt lat="48.71271" lon="2.47077">
        <ele>37</ele>
        <time>2022-10-27T08:58:02.600Z</time>
      </trkpt>
      <trkpt lat="48.71273" lon="2.47081">
        <ele>37</ele>
        <time>2022-10-27T08:58:07.610Z</time>
      </trkpt>
      <trkpt lat="48.71274" lon="2.47086">
        <ele>37</ele>
        <time>2022-10-27T08:58:11.620Z</time>
      </trkpt>
      <trkpt lat="48.71276" lon="2.47091">
        <ele>37</ele>
        <time>2022-10-27T08:58:16.608Z</time>
      </trkpt>
      <trkpt lat="48.71278" lon="2.47098">
        <ele>36</ele>
        <time>2022-10-27T08:58:21.613Z</time>
      </trkpt>
      <trkpt lat="48.71279" lon="2.47101">
        <ele>36</ele>
        <time>2022-10-27T08:58:26.603Z</time>
      </trkpt>
      <trkpt lat="48.71279" lon="2.47111">
        <ele>36</ele>
        <time>2022-10-27T09:04:01.604Z</time>
      </trkpt>
      <trkpt lat="48.71278" lon="2.47111">
        <ele>36</ele>
        <time>2022-10-27T09:04:06.607Z</time>
      </trkpt>
      <trkpt lat="48.71277" lon="2.4711">
        <ele>36</ele>
        <time>2022-10-27T09:04:11.602Z</time>
      </trkpt>
      <trkpt lat="48.71279" lon="2.47114">
        <ele>36</ele>
        <time>2022-10-27T09:04:16.604Z</time>
      </trkpt>
      <trkpt lat="48.71281" lon="2.47119">
        <ele>36</ele>
        <time>2022-10-27T09:04:21.605Z</time>
      </trkpt>
      <trkpt lat="48.71283" lon="2.47123">
        <ele>36</ele>
        <time>2022-10-27T09:04:26.592Z</time>
      </trkpt>
      <trkpt lat="48.71284" lon="2.47127">
        <ele>35</ele>
        <time>2022-10-27T09:04:31.603Z</time>
      </trkpt>
      <trkpt lat="48.71283" lon="2.47132">
        <ele>35</ele>
        <time>2022-10-27T09:04:36.605Z</time>
      </trkpt>
      <trkpt lat="48.71283" lon="2.47134">
        <ele>35</ele>
        <time>2022-10-27T09:04:41.598Z</time>
      </trkpt>
      <trkpt lat="48.71283" lon="2.47141">
        <ele>35</ele>
        <time>2022-10-27T09:04:46.595Z</time>
      </trkpt>
      <trkpt lat="48.71285" lon="2.47146">
        <ele>35</ele>
        <time>2022-10-27T09:04:51.606Z</time>
      </trkpt>
      <trkpt lat="48.71286" lon="2.47153">
        <ele>36</ele>
        <time>2022-10-27T09:04:56.604Z</time>
      </trkpt>
      <trkpt lat="48.71288" lon="2.47159">
        <ele>36</ele>
        <time>2022-10-27T09:05:00.657Z</time>
      </trkpt>
      <trkpt lat="48.71291" lon="2.47167">
        <ele>36</ele>
        <time>2022-10-27T09:05:05.616Z</time>
      </trkpt>
      <trkpt lat="48.71292" lon="2.47172">
        <ele>38</ele>
        <time>2022-10-27T09:05:10.610Z</time>
      </trkpt>
      <trkpt lat="48.71294" lon="2.47172">
        <ele>38</ele>
        <time>2022-10-27T09:05:15.751Z</time>
      </trkpt>
      <trkpt lat="48.71296" lon="2.47178">
        <ele>38</ele>
        <time>2022-10-27T09:05:20.612Z</time>
      </trkpt>
      <trkpt lat="48.71299" lon="2.47181">
        <ele>38</ele>
        <time>2022-10-27T09:05:25.607Z</time>
      </trkpt>
      <trkpt lat="48.71301" lon="2.47186">
        <ele>38</ele>
        <time>2022-10-27T09:05:30.600Z</time>
      </trkpt>
      <trkpt lat="48.71304" lon="2.47188">
        <ele>38</ele>
        <time>2022-10-27T09:05:35.597Z</time>
      </trkpt>
      <trkpt lat="48.71308" lon="2.47191">
        <ele>38</ele>
        <time>2022-10-27T09:05:40.724Z</time>
      </trkpt>
      <trkpt lat="48.7131" lon="2.472">
        <ele>38</ele>
        <time>2022-10-27T09:05:45.596Z</time>
      </trkpt>
      <trkpt lat="48.71315" lon="2.47199">
        <ele>38</ele>
        <time>2022-10-27T09:05:49.611Z</time>
      </trkpt>
      <trkpt lat="48.71321" lon="2.47203">
        <ele>38</ele>
        <time>2022-10-27T09:05:54.606Z</time>
      </trkpt>
      <trkpt lat="48.71319" lon="2.47211">
        <ele>38</ele>
        <time>2022-10-27T09:05:59.598Z</time>
      </trkpt>
      <trkpt lat="48.71319" lon="2.47222">
        <ele>38</ele>
        <time>2022-10-27T09:06:04.593Z</time>
      </trkpt>
      <trkpt lat="48.71321" lon="2.47231">
        <ele>37</ele>
        <time>2022-10-27T09:06:09.590Z</time>
      </trkpt>
      <trkpt lat="48.71324" lon="2.47237">
        <ele>37</ele>
        <time>2022-10-27T09:06:14.599Z</time>
      </trkpt>
      <trkpt lat="48.71327" lon="2.47244">
        <ele>37</ele>
        <time>2022-10-27T09:06:20.607Z</time>
      </trkpt>
      <trkpt lat="48.7133" lon="2.4725">
        <ele>37</ele>
        <time>2022-10-27T09:06:25.605Z</time>
      </trkpt>
      <trkpt lat="48.71332" lon="2.47255">
        <ele>37</ele>
        <time>2022-10-27T09:06:29.593Z</time>
      </trkpt>
      <trkpt lat="48.71334" lon="2.4726">
        <ele>37</ele>
        <time>2022-10-27T09:06:34.602Z</time>
      </trkpt>
      <trkpt lat="48.71337" lon="2.47267">
        <ele>37</ele>
        <time>2022-10-27T09:06:39.607Z</time>
      </trkpt>
      <trkpt lat="48.71338" lon="2.47273">
        <ele>37</ele>
        <time>2022-10-27T09:06:44.605Z</time>
      </trkpt>
      <trkpt lat="48.71338" lon="2.47278">
        <ele>37</ele>
        <time>2022-10-27T09:06:49.609Z</time>
      </trkpt>
      <trkpt lat="48.71339" lon="2.4728">
        <ele>37</ele>
        <time>2022-10-27T09:06:54.592Z</time>
      </trkpt>
      <trkpt lat="48.71341" lon="2.47284">
        <ele>37</ele>
        <time>2022-10-27T09:06:59.595Z</time>
      </trkpt>
      <trkpt lat="48.71341" lon="2.47288">
        <ele>37</ele>
        <time>2022-10-27T09:07:04.612Z</time>
      </trkpt>
      <trkpt lat="48.71342" lon="2.47295">
        <ele>36</ele>
        <time>2022-10-27T09:07:09.611Z</time>
      </trkpt>
      <trkpt lat="48.71342" lon="2.47299">
        <ele>36</ele>
        <time>2022-10-27T09:07:14.613Z</time>
      </trkpt>
      <trkpt lat="48.71343" lon="2.47307">
        <ele>36</ele>
        <time>2022-10-27T09:07:19.611Z</time>
      </trkpt>
      <trkpt lat="48.71343" lon="2.47313">
        <ele>36</ele>
        <time>2022-10-27T09:07:24.607Z</time>
      </trkpt>
      <trkpt lat="48.71344" lon="2.47321">
        <ele>36</ele>
        <time>2022-10-27T09:07:29.613Z</time>
      </trkpt>
      <trkpt lat="48.71344" lon="2.47329">
        <ele>36</ele>
        <time>2022-10-27T09:07:34.604Z</time>
      </trkpt>
      <trkpt lat="48.71343" lon="2.47332">
        <ele>36</ele>
        <time>2022-10-27T09:07:38.605Z</time>
      </trkpt>
      <trkpt lat="48.71344" lon="2.47338">
        <ele>36</ele>
        <time>2022-10-27T09:07:42.590Z</time>
      </trkpt>
      <trkpt lat="48.71345" lon="2.47344">
        <ele>36</ele>
        <time>2022-10-27T09:07:47.614Z</time>
      </trkpt>
      <trkpt lat="48.71347" lon="2.47352">
        <ele>35</ele>
        <time>2022-10-27T09:07:52.607Z</time>
      </trkpt>
      <trkpt lat="48.7135" lon="2.47357">
        <ele>36</ele>
        <time>2022-10-27T09:07:57.588Z</time>
      </trkpt>
      <trkpt lat="48.71351" lon="2.47362">
        <ele>36</ele>
        <time>2022-10-27T09:08:02.612Z</time>
      </trkpt>
      <trkpt lat="48.71352" lon="2.47366">
        <ele>36</ele>
        <time>2022-10-27T09:08:06.610Z</time>
      </trkpt>
      <trkpt lat="48.71355" lon="2.47369">
        <ele>36</ele>
        <time>2022-10-27T09:08:11.614Z</time>
      </trkpt>
      <trkpt lat="48.71357" lon="2.47375">
        <ele>36</ele>
        <time>2022-10-27T09:08:16.598Z</time>
      </trkpt>
      <trkpt lat="48.71359" lon="2.47379">
        <ele>36</ele>
        <time>2022-10-27T09:08:21.613Z</time>
      </trkpt>
      <trkpt lat="48.71362" lon="2.47384">
        <ele>36</ele>
        <time>2022-10-27T09:08:26.613Z</time>
      </trkpt>
      <trkpt lat="48.71365" lon="2.47387">
        <ele>36</ele>
        <time>2022-10-27T09:08:31.609Z</time>
      </trkpt>
      <trkpt lat="48.71367" lon="2.47392">
        <ele>36</ele>
        <time>2022-10-27T09:08:36.605Z</time>
      </trkpt>
      <trkpt lat="48.71371" lon="2.47395">
        <ele>36</ele>
        <time>2022-10-27T09:08:41.618Z</time>
      </trkpt>
      <trkpt lat="48.71374" lon="2.47397">
        <ele>36</ele>
        <time>2022-10-27T09:08:46.608Z</time>
      </trkpt>
      <trkpt lat="48.71378" lon="2.47401">
        <ele>37</ele>
        <time>2022-10-27T09:08:51.596Z</time>
      </trkpt>
      <trkpt lat="48.71383" lon="2.47402">
        <ele>37</ele>
        <time>2022-10-27T09:08:56.590Z</time>
      </trkpt>
      <trkpt lat="48.71384" lon="2.47406">
        <ele>37</ele>
        <time>2022-10-27T09:09:01.588Z</time>
      </trkpt>
      <trkpt lat="48.71385" lon="2.47407">
        <ele>37</ele>
        <time>2022-10-27T09:09:05.727Z</time>
      </trkpt>
      <trkpt lat="48.71388" lon="2.47411">
        <ele>37</ele>
        <time>2022-10-27T09:09:10.612Z</time>
      </trkpt>
      <trkpt lat="48.71392" lon="2.47414">
        <ele>37</ele>
        <time>2022-10-27T09:09:15.733Z</time>
      </trkpt>
      <trkpt lat="48.71393" lon="2.47416">
        <ele>37</ele>
        <time>2022-10-27T09:09:20.628Z</time>
      </trkpt>
      <trkpt lat="48.71395" lon="2.47423">
        <ele>37</ele>
        <time>2022-10-27T09:09:25.621Z</time>
      </trkpt>
      <trkpt lat="48.71398" lon="2.47427">
        <ele>37</ele>
        <time>2022-10-27T09:09:30.618Z</time>
      </trkpt>
      <trkpt lat="48.71401" lon="2.47431">
        <ele>37</ele>
        <time>2022-10-27T09:09:35.624Z</time>
      </trkpt>
      <trkpt lat="48.71405" lon="2.47436">
        <ele>35</ele>
        <time>2022-10-27T09:09:40.616Z</time>
      </trkpt>
      <trkpt lat="48.71408" lon="2.47441">
        <ele>35</ele>
        <time>2022-10-27T09:09:44.672Z</time>
      </trkpt>
      <trkpt lat="48.7141" lon="2.47446">
        <ele>35</ele>
        <time>2022-10-27T09:09:49.609Z</time>
      </trkpt>
      <trkpt lat="48.71413" lon="2.4745">
        <ele>35</ele>
        <time>2022-10-27T09:09:54.619Z</time>
      </trkpt>
      <trkpt lat="48.71415" lon="2.47454">
        <ele>35</ele>
        <time>2022-10-27T09:09:59.619Z</time>
      </trkpt>
      <trkpt lat="48.71419" lon="2.47459">
        <ele>35</ele>
        <time>2022-10-27T09:10:04.619Z</time>
      </trkpt>
      <trkpt lat="48.7142" lon="2.47461">
        <ele>35</ele>
        <time>2022-10-27T09:10:09.620Z</time>
      </trkpt>
      <trkpt lat="48.7142" lon="2.47462">
        <ele>35</ele>
        <time>2022-10-27T09:10:13.620Z</time>
      </trkpt>
      <trkpt lat="48.71422" lon="2.47465">
        <ele>35</ele>
        <time>2022-10-27T09:10:18.619Z</time>
      </trkpt>
      <trkpt lat="48.71426" lon="2.47472">
        <ele>35</ele>
        <time>2022-10-27T09:10:23.612Z</time>
      </trkpt>
      <trkpt lat="48.71429" lon="2.47475">
        <ele>35</ele>
        <time>2022-10-27T09:10:28.615Z</time>
      </trkpt>
      <trkpt lat="48.71431" lon="2.4748">
        <ele>36</ele>
        <time>2022-10-27T09:10:32.621Z</time>
      </trkpt>
      <trkpt lat="48.71437" lon="2.47489">
        <ele>36</ele>
        <time>2022-10-27T09:10:37.614Z</time>
      </trkpt>
      <trkpt lat="48.71438" lon="2.47494">
        <ele>36</ele>
        <time>2022-10-27T09:10:41.623Z</time>
      </trkpt>
      <trkpt lat="48.7144" lon="2.47502">
        <ele>36</ele>
        <time>2022-10-27T09:10:46.623Z</time>
      </trkpt>
      <trkpt lat="48.71442" lon="2.47505">
        <ele>36</ele>
        <time>2022-10-27T09:10:51.614Z</time>
      </trkpt>
      <trkpt lat="48.71443" lon="2.4751">
        <ele>36</ele>
        <time>2022-10-27T09:10:55.623Z</time>
      </trkpt>
      <trkpt lat="48.71446" lon="2.47515">
        <ele>37</ele>
        <time>2022-10-27T09:11:00.622Z</time>
      </trkpt>
      <trkpt lat="48.71449" lon="2.47518">
        <ele>37</ele>
        <time>2022-10-27T09:11:05.612Z</time>
      </trkpt>
      <trkpt lat="48.71453" lon="2.47521">
        <ele>37</ele>
        <time>2022-10-27T09:11:10.662Z</time>
      </trkpt>
      <trkpt lat="48.71453" lon="2.47523">
        <ele>37</ele>
        <time>2022-10-27T09:11:15.588Z</time>
      </trkpt>
      <trkpt lat="48.71454" lon="2.47526">
        <ele>37</ele>
        <time>2022-10-27T09:11:19.616Z</time>
      </trkpt>
      <trkpt lat="48.71455" lon="2.47532">
        <ele>37</ele>
        <time>2022-10-27T09:11:24.619Z</time>
      </trkpt>
      <trkpt lat="48.71457" lon="2.47538">
        <ele>37</ele>
        <time>2022-10-27T09:11:29.610Z</time>
      </trkpt>
      <trkpt lat="48.71461" lon="2.47543">
        <ele>38</ele>
        <time>2022-10-27T09:11:34.602Z</time>
      </trkpt>
      <trkpt lat="48.71465" lon="2.47548">
        <ele>38</ele>
        <time>2022-10-27T09:11:39.604Z</time>
      </trkpt>
      <trkpt lat="48.71468" lon="2.47554">
        <ele>38</ele>
        <time>2022-10-27T09:11:43.628Z</time>
      </trkpt>
      <trkpt lat="48.71469" lon="2.47562">
        <ele>38</ele>
        <time>2022-10-27T09:11:48.619Z</time>
      </trkpt>
      <trkpt lat="48.71471" lon="2.47569">
        <ele>38</ele>
        <time>2022-10-27T09:11:53.604Z</time>
      </trkpt>
      <trkpt lat="48.71473" lon="2.47573">
        <ele>37</ele>
        <time>2022-10-27T09:11:58.609Z</time>
      </trkpt>
      <trkpt lat="48.71475" lon="2.47577">
        <ele>37</ele>
        <time>2022-10-27T09:12:03.603Z</time>
      </trkpt>
      <trkpt lat="48.71476" lon="2.47582">
        <ele>37</ele>
        <time>2022-10-27T09:12:08.611Z</time>
      </trkpt>
      <trkpt lat="48.71478" lon="2.47589">
        <ele>37</ele>
        <time>2022-10-27T09:12:13.623Z</time>
      </trkpt>
      <trkpt lat="48.7148" lon="2.47595">
        <ele>37</ele>
        <time>2022-10-27T09:12:18.610Z</time>
      </trkpt>
      <trkpt lat="48.71482" lon="2.47601">
        <ele>37</ele>
        <time>2022-10-27T09:12:23.608Z</time>
      </trkpt>
      <trkpt lat="48.71483" lon="2.47605">
        <ele>37</ele>
        <time>2022-10-27T09:12:28.610Z</time>
      </trkpt>
      <trkpt lat="48.71485" lon="2.47611">
        <ele>37</ele>
        <time>2022-10-27T09:12:33.621Z</time>
      </trkpt>
      <trkpt lat="48.71486" lon="2.47617">
        <ele>37</ele>
        <time>2022-10-27T09:12:38.609Z</time>
      </trkpt>
      <trkpt lat="48.71486" lon="2.47624">
        <ele>37</ele>
        <time>2022-10-27T09:12:43.599Z</time>
      </trkpt>
      <trkpt lat="48.71487" lon="2.47632">
        <ele>37</ele>
        <time>2022-10-27T09:12:48.610Z</time>
      </trkpt>
      <trkpt lat="48.71487" lon="2.47639">
        <ele>37</ele>
        <time>2022-10-27T09:12:53.615Z</time>
      </trkpt>
      <trkpt lat="48.71488" lon="2.47645">
        <ele>37</ele>
        <time>2022-10-27T09:12:58.619Z</time>
      </trkpt>
      <trkpt lat="48.71488" lon="2.47649">
        <ele>37</ele>
        <time>2022-10-27T09:13:03.590Z</time>
      </trkpt>
      <trkpt lat="48.71489" lon="2.47655">
        <ele>38</ele>
        <time>2022-10-27T09:13:07.608Z</time>
      </trkpt>
      <trkpt lat="48.7149" lon="2.47658">
        <ele>38</ele>
        <time>2022-10-27T09:13:12.608Z</time>
      </trkpt>
      <trkpt lat="48.71491" lon="2.47666">
        <ele>38</ele>
        <time>2022-10-27T09:13:17.619Z</time>
      </trkpt>
      <trkpt lat="48.71492" lon="2.47673">
        <ele>38</ele>
        <time>2022-10-27T09:13:22.617Z</time>
      </trkpt>
      <trkpt lat="48.71491" lon="2.47679">
        <ele>38</ele>
        <time>2022-10-27T09:13:27.618Z</time>
      </trkpt>
      <trkpt lat="48.71491" lon="2.47685">
        <ele>37</ele>
        <time>2022-10-27T09:13:32.613Z</time>
      </trkpt>
      <trkpt lat="48.7149" lon="2.47692">
        <ele>37</ele>
        <time>2022-10-27T09:13:37.617Z</time>
      </trkpt>
      <trkpt lat="48.7149" lon="2.47698">
        <ele>37</ele>
        <time>2022-10-27T09:13:42.618Z</time>
      </trkpt>
      <trkpt lat="48.7149" lon="2.47703">
        <ele>37</ele>
        <time>2022-10-27T09:13:47.612Z</time>
      </trkpt>
      <trkpt lat="48.71491" lon="2.4771">
        <ele>37</ele>
        <time>2022-10-27T09:13:51.614Z</time>
      </trkpt>
      <trkpt lat="48.71491" lon="2.47714">
        <ele>37</ele>
        <time>2022-10-27T09:13:56.615Z</time>
      </trkpt>
      <trkpt lat="48.71493" lon="2.47719">
        <ele>37</ele>
        <time>2022-10-27T09:14:01.622Z</time>
      </trkpt>
      <trkpt lat="48.71493" lon="2.47726">
        <ele>37</ele>
        <time>2022-10-27T09:14:06.608Z</time>
      </trkpt>
      <trkpt lat="48.71492" lon="2.47734">
        <ele>37</ele>
        <time>2022-10-27T09:14:11.598Z</time>
      </trkpt>
      <trkpt lat="48.71494" lon="2.47739">
        <ele>37</ele>
        <time>2022-10-27T09:14:15.605Z</time>
      </trkpt>
      <trkpt lat="48.71494" lon="2.47743">
        <ele>37</ele>
        <time>2022-10-27T09:14:20.620Z</time>
      </trkpt>
      <trkpt lat="48.71493" lon="2.4775">
        <ele>37</ele>
        <time>2022-10-27T09:14:25.605Z</time>
      </trkpt>
      <trkpt lat="48.71494" lon="2.47755">
        <ele>37</ele>
        <time>2022-10-27T09:14:29.610Z</time>
      </trkpt>
      <trkpt lat="48.71493" lon="2.47761">
        <ele>37</ele>
        <time>2022-10-27T09:14:34.619Z</time>
      </trkpt>
      <trkpt lat="48.71492" lon="2.47768">
        <ele>37</ele>
        <time>2022-10-27T09:14:39.606Z</time>
      </trkpt>
      <trkpt lat="48.71491" lon="2.47771">
        <ele>37</ele>
        <time>2022-10-27T09:14:44.613Z</time>
      </trkpt>
      <trkpt lat="48.71489" lon="2.4778">
        <ele>37</ele>
        <time>2022-10-27T09:16:20.612Z</time>
      </trkpt>
      <trkpt lat="48.71488" lon="2.4778">
        <ele>37</ele>
        <time>2022-10-27T09:16:25.611Z</time>
      </trkpt>
      <trkpt lat="48.71486" lon="2.47782">
        <ele>37</ele>
        <time>2022-10-27T09:16:30.591Z</time>
      </trkpt>
      <trkpt lat="48.71485" lon="2.47783">
        <ele>37</ele>
        <time>2022-10-27T09:16:34.604Z</time>
      </trkpt>
      <trkpt lat="48.71483" lon="2.47789">
        <ele>37</ele>
        <time>2022-10-27T09:16:39.614Z</time>
      </trkpt>
      <trkpt lat="48.71487" lon="2.47796">
        <ele>37</ele>
        <time>2022-10-27T09:20:20.616Z</time>
      </trkpt>
      <trkpt lat="48.71488" lon="2.47796">
        <ele>37</ele>
        <time>2022-10-27T09:20:24.619Z</time>
      </trkpt>
      <trkpt lat="48.71489" lon="2.478">
        <ele>37</ele>
        <time>2022-10-27T09:20:29.611Z</time>
      </trkpt>
      <trkpt lat="48.7149" lon="2.47803">
        <ele>37</ele>
        <time>2022-10-27T09:20:33.625Z</time>
      </trkpt>
      <trkpt lat="48.7149" lon="2.47811">
        <ele>37</ele>
        <time>2022-10-27T09:20:38.613Z</time>
      </trkpt>
      <trkpt lat="48.71488" lon="2.47818">
        <ele>37</ele>
        <time>2022-10-27T09:20:43.626Z</time>
      </trkpt>
      <trkpt lat="48.71484" lon="2.4783">
        <ele>38</ele>
        <time>2022-10-27T09:20:48.621Z</time>
      </trkpt>
      <trkpt lat="48.71483" lon="2.47834">
        <ele>38</ele>
        <time>2022-10-27T09:20:52.613Z</time>
      </trkpt>
      <trkpt lat="48.71482" lon="2.4784">
        <ele>38</ele>
        <time>2022-10-27T09:20:56.626Z</time>
      </trkpt>
      <trkpt lat="48.71482" lon="2.4786">
        <ele>38</ele>
        <time>2022-10-27T09:21:20.614Z</time>
      </trkpt>
      <trkpt lat="48.71481" lon="2.47861">
        <ele>38</ele>
        <time>2022-10-27T09:21:25.623Z</time>
      </trkpt>
      <trkpt lat="48.7148" lon="2.47862">
        <ele>38</ele>
        <time>2022-10-27T09:21:30.614Z</time>
      </trkpt>
      <trkpt lat="48.71478" lon="2.47864">
        <ele>38</ele>
        <time>2022-10-27T09:21:34.641Z</time>
      </trkpt>
      <trkpt lat="48.71474" lon="2.47864">
        <ele>38</ele>
        <time>2022-10-27T09:21:39.621Z</time>
      </trkpt>
      <trkpt lat="48.71471" lon="2.47866">
        <ele>38</ele>
        <time>2022-10-27T09:21:44.613Z</time>
      </trkpt>
      <trkpt lat="48.71468" lon="2.47868">
        <ele>38</ele>
        <time>2022-10-27T09:21:48.646Z</time>
      </trkpt>
      <trkpt lat="48.71465" lon="2.47869">
        <ele>38</ele>
        <time>2022-10-27T09:21:52.736Z</time>
      </trkpt>
      <trkpt lat="48.71465" lon="2.47873">
        <ele>38</ele>
        <time>2022-10-27T09:21:57.621Z</time>
      </trkpt>
      <trkpt lat="48.71465" lon="2.47877">
        <ele>38</ele>
        <time>2022-10-27T09:22:01.745Z</time>
      </trkpt>
      <trkpt lat="48.71461" lon="2.47884">
        <ele>38</ele>
        <time>2022-10-27T09:22:06.641Z</time>
      </trkpt>
      <trkpt lat="48.71458" lon="2.47895">
        <ele>39</ele>
        <time>2022-10-27T09:22:11.742Z</time>
      </trkpt>
      <trkpt lat="48.71458" lon="2.47906">
        <ele>39</ele>
        <time>2022-10-27T09:22:16.621Z</time>
      </trkpt>
      <trkpt lat="48.71458" lon="2.47914">
        <ele>39</ele>
        <time>2022-10-27T09:22:20.628Z</time>
      </trkpt>
      <trkpt lat="48.71458" lon="2.47921">
        <ele>38</ele>
        <time>2022-10-27T09:22:24.642Z</time>
      </trkpt>
      <trkpt lat="48.71459" lon="2.47932">
        <ele>38</ele>
        <time>2022-10-27T09:22:29.610Z</time>
      </trkpt>
      <trkpt lat="48.7146" lon="2.47945">
        <ele>38</ele>
        <time>2022-10-27T09:22:34.635Z</time>
      </trkpt>
      <trkpt lat="48.71462" lon="2.47957">
        <ele>38</ele>
        <time>2022-10-27T09:22:39.637Z</time>
      </trkpt>
      <trkpt lat="48.71464" lon="2.47968">
        <ele>37</ele>
        <time>2022-10-27T09:22:44.624Z</time>
      </trkpt>
      <trkpt lat="48.71466" lon="2.47979">
        <ele>37</ele>
        <time>2022-10-27T09:22:49.633Z</time>
      </trkpt>
      <trkpt lat="48.71469" lon="2.4799">
        <ele>38</ele>
        <time>2022-10-27T09:22:54.627Z</time>
      </trkpt>
      <trkpt lat="48.71471" lon="2.48002">
        <ele>38</ele>
        <time>2022-10-27T09:22:59.674Z</time>
      </trkpt>
      <trkpt lat="48.71471" lon="2.48013">
        <ele>38</ele>
        <time>2022-10-27T09:23:04.612Z</time>
      </trkpt>
      <trkpt lat="48.7147" lon="2.48023">
        <ele>38</ele>
        <time>2022-10-27T09:23:09.606Z</time>
      </trkpt>
      <trkpt lat="48.71471" lon="2.48033">
        <ele>38</ele>
        <time>2022-10-27T09:23:14.607Z</time>
      </trkpt>
      <trkpt lat="48.71472" lon="2.48044">
        <ele>39</ele>
        <time>2022-10-27T09:23:19.608Z</time>
      </trkpt>
      <trkpt lat="48.71473" lon="2.48052">
        <ele>39</ele>
        <time>2022-10-27T09:23:24.615Z</time>
      </trkpt>
      <trkpt lat="48.71474" lon="2.48061">
        <ele>39</ele>
        <time>2022-10-27T09:23:29.619Z</time>
      </trkpt>
      <trkpt lat="48.71474" lon="2.4807">
        <ele>39</ele>
        <time>2022-10-27T09:23:34.601Z</time>
      </trkpt>
      <trkpt lat="48.71476" lon="2.48076">
        <ele>39</ele>
        <time>2022-10-27T09:23:39.615Z</time>
      </trkpt>
      <trkpt lat="48.71478" lon="2.48079">
        <ele>39</ele>
        <time>2022-10-27T09:23:44.608Z</time>
      </trkpt>
      <trkpt lat="48.71478" lon="2.48082">
        <ele>39</ele>
        <time>2022-10-27T09:23:49.614Z</time>
      </trkpt>
      <trkpt lat="48.71477" lon="2.48088">
        <ele>39</ele>
        <time>2022-10-27T09:23:54.621Z</time>
      </trkpt>
      <trkpt lat="48.71475" lon="2.48096">
        <ele>39</ele>
        <time>2022-10-27T09:23:59.604Z</time>
      </trkpt>
    </trkseg>
  </trk>
</gpx>